Observation data for Canadian on 04/21/2019      Previous  Date  Next       Current Mesonet Observations  Soil Data  Daily Summary Page  Observations in Plain Language
KCA1 210500Z 17017KT 19/08 A2973 RMK A01 T01940080  RH  048%=      5-min Rain = 0
KCA1 210501Z 17020KT 19/08 A2973 RMK A01 T01940080  RH  048%=      5-min Rain = 0
KCA1 210502Z 17016KT 19/08 A2974 RMK A01 T01940081  RH  048%=      5-min Rain = 0
KCA1 210503Z 17017G22KT 19/08 A2973 RMK A01 T01930080  RH  048%=      5-min Rain = 0
KCA1 210504Z 17018KT 19/08 A2973 RMK A01 T01930081  RH  048%=      5-min Rain = 0
KCA1 210505Z 17016G21KT 19/08 A2974 RMK A01 T01930081  RH  048%=      5-min Rain = 0
KCA1 210506Z 17020KT 19/08 A2973 RMK A01 T01920080  RH  048%=      5-min Rain = 0
KCA1 210507Z 16016KT 19/08 A2973 RMK A01 T01920081  RH  048%=      5-min Rain = 0
KCA1 210508Z 17017KT 19/08 A2973 RMK A01 T01930081  RH  048%=      5-min Rain = 0
KCA1 210509Z 17016KT 19/08 A2973 RMK A01 T01920081  RH  048%=      5-min Rain = 0
KCA1 210510Z 17017KT 19/08 A2973 RMK A01 T01920081  RH  048%=      5-min Rain = 0
KCA1 210511Z 17020KT 19/08 A2973 RMK A01 T01910080  RH  049%=      5-min Rain = 0
KCA1 210512Z 17017G23KT 19/08 A2973 RMK A01 T01920081  RH  049%=      5-min Rain = 0
KCA1 210513Z 17019G24KT 19/08 A2973 RMK A01 T01910081  RH  049%=      5-min Rain = 0
KCA1 210514Z 17018KT 19/08 A2973 RMK A01 T01910081  RH  049%=      5-min Rain = 0
KCA1 210515Z 16018G24KT 19/08 A2973 RMK A01 T01910081  RH  049%=      5-min Rain = 0
KCA1 210516Z 16017KT 19/08 A2973 RMK A01 T01900081  RH  049%=      5-min Rain = 0
KCA1 210517Z 17017KT 19/08 A2973 RMK A01 T01900081  RH  049%=      5-min Rain = 0
KCA1 210518Z 16017G22KT 19/08 A2973 RMK A01 T01900081  RH  049%=      5-min Rain = 0
KCA1 210519Z 17017G22KT 19/08 A2973 RMK A01 T01900081  RH  049%=      5-min Rain = 0
KCA1 210520Z 16016G22KT 19/08 A2973 RMK A01 T01900081  RH  049%=      5-min Rain = 0
KCA1 210521Z 16019KT 19/08 A2973 RMK A01 T01890081  RH  049%=      5-min Rain = 0
KCA1 210522Z 17017KT 19/08 A2973 RMK A01 T01890081  RH  049%=      5-min Rain = 0
KCA1 210523Z 16018KT 19/08 A2973 RMK A01 T01890081  RH  049%=      5-min Rain = 0
KCA1 210524Z 16018KT 19/08 A2973 RMK A01 T01890081  RH  049%=      5-min Rain = 0
KCA1 210525Z 16018KT 19/08 A2973 RMK A01 T01890081  RH  050%=      5-min Rain = 0
KCA1 210526Z 16021KT 19/08 A2973 RMK A01 T01890081  RH  050%=      5-min Rain = 0
KCA1 210527Z 16020KT 19/08 A2973 RMK A01 T01890081  RH  049%=      5-min Rain = 0
KCA1 210528Z 15019KT 19/08 A2973 RMK A01 T01890081  RH  049%=      5-min Rain = 0
KCA1 210529Z 16019KT 19/08 A2973 RMK A01 T01890081  RH  049%=      5-min Rain = 0
KCA1 210530Z 16018KT 19/08 A2973 RMK A01 T01900082  RH  050%=      5-min Rain = 0
KCA1 210531Z 16020G25KT 19/08 A2973 RMK A01 T01890081  RH  050%=      5-min Rain = 0
KCA1 210532Z 16019G25KT 19/08 A2973 RMK A01 T01890082  RH  050%=      5-min Rain = 0
KCA1 210533Z 16018KT 19/08 A2973 RMK A01 T01890082  RH  050%=      5-min Rain = 0
KCA1 210534Z 16018KT 19/08 A2973 RMK A01 T01880082  RH  050%=      5-min Rain = 0
KCA1 210535Z 16020KT 19/08 A2973 RMK A01 T01880082  RH  050%=      5-min Rain = 0
KCA1 210536Z 16017KT 19/08 A2973 RMK A01 T01880082  RH  050%=      5-min Rain = 0
KCA1 210537Z 16017G23KT 19/08 A2973 RMK A01 T01880082  RH  050%=      5-min Rain = 0
KCA1 210538Z 16016KT 19/08 A2973 RMK A01 T01870082  RH  050%=      5-min Rain = 0
KCA1 210539Z 16016KT 19/08 A2973 RMK A01 T01870082  RH  050%=      5-min Rain = 0
KCA1 210540Z 16017KT 19/08 A2973 RMK A01 T01870082  RH  051%=      5-min Rain = 0
KCA1 210541Z 16017G22KT 19/08 A2973 RMK A01 T01870083  RH  051%=      5-min Rain = 0
KCA1 210542Z 17015KT 19/08 A2973 RMK A01 T01870082  RH  051%=      5-min Rain = 0
KCA1 210543Z 17017KT 19/08 A2973 RMK A01 T01860083  RH  051%=      5-min Rain = 0
KCA1 210544Z 17017KT 19/08 A2973 RMK A01 T01860083  RH  051%=      5-min Rain = 0
KCA1 210545Z 17016G21KT 19/08 A2973 RMK A01 T01860083  RH  051%=      5-min Rain = 0
KCA1 210546Z 17017KT 19/08 A2973 RMK A01 T01860083  RH  051%=      5-min Rain = 0
KCA1 210547Z 17015G22KT 19/08 A2973 RMK A01 T01860083  RH  051%=      5-min Rain = 0
KCA1 210548Z 16017KT 19/08 A2973 RMK A01 T01860083  RH  051%=      5-min Rain = 0
KCA1 210549Z 17017G24KT 19/08 A2973 RMK A01 T01850083  RH  051%=      5-min Rain = 0
KCA1 210550Z 17015G23KT 19/08 A2973 RMK A01 T01850082  RH  051%=      5-min Rain = 0
KCA1 210551Z 17016KT 19/08 A2973 RMK A01 T01850083  RH  051%=      5-min Rain = 0
KCA1 210552Z 17016KT 19/08 A2973 RMK A01 T01850082  RH  051%=      5-min Rain = 0
KCA1 210553Z 17016KT 19/08 A2973 RMK A01 T01850082  RH  051%=      5-min Rain = 0
KCA1 210554Z 17016KT 19/08 A2973 RMK A01 T01850083  RH  051%=      5-min Rain = 0
KCA1 210555Z 17015KT 19/08 A2973 RMK A01 T01850083  RH  051%=      5-min Rain = 0
KCA1 210556Z 17012G17KT 18/08 A2973 RMK A01 T01840082  RH  051%=      5-min Rain = 0
KCA1 210557Z 17014G22KT 18/08 A2973 RMK A01 T01840083  RH  052%=      5-min Rain = 0
KCA1 210558Z 18015KT 18/08 A2973 RMK A01 T01830083  RH  052%=      5-min Rain = 0
KCA1 210559Z 17014G19KT 18/08 A2973 RMK A01 T01830082  RH  052%=      5-min Rain = 0
KCA1 210600Z 17016KT 18/08 A2973 RMK A01 T01830083  RH  052%=      5-min Rain = 0
KCA1 210601Z 17015KT 18/08 A2973 RMK A01 T01830083  RH  052%=      5-min Rain = 0
KCA1 210602Z 17014KT 18/08 A2973 RMK A01 T01830083  RH  052%=      5-min Rain = 0
KCA1 210603Z 18012KT 18/08 A2973 RMK A01 T01820083  RH  052%=      5-min Rain = 0
KCA1 210604Z 17013KT 18/08 A2973 RMK A01 T01820082  RH  052%=      5-min Rain = 0
KCA1 210605Z 17013KT 18/08 A2973 RMK A01 T01810083  RH  053%=      5-min Rain = 0
KCA1 210606Z 17016KT 18/08 A2973 RMK A01 T01800082  RH  053%=      5-min Rain = 0
KCA1 210607Z 17013KT 18/08 A2973 RMK A01 T01800082  RH  053%=      5-min Rain = 0
KCA1 210608Z 17014KT 18/08 A2973 RMK A01 T01800083  RH  053%=      5-min Rain = 0
KCA1 210609Z 16015KT 18/08 A2973 RMK A01 T01800083  RH  053%=      5-min Rain = 0
KCA1 210610Z 17014KT 18/08 A2973 RMK A01 T01790083  RH  053%=      5-min Rain = 0
KCA1 210611Z 17015G22KT 18/08 A2973 RMK A01 T01790082  RH  053%=      5-min Rain = 0
KCA1 210612Z 17015KT 18/08 A2973 RMK A01 T01790083  RH  053%=      5-min Rain = 0
KCA1 210613Z 17014KT 18/08 A2973 RMK A01 T01790082  RH  053%=      5-min Rain = 0
KCA1 210614Z 17016KT 18/08 A2973 RMK A01 T01790083  RH  053%=      5-min Rain = 0
KCA1 210615Z 18018KT 18/08 A2972 RMK A01 T01790082  RH  053%=      5-min Rain = 0
KCA1 210616Z 17014G19KT 18/08 A2972 RMK A01 T01790083  RH  053%=      5-min Rain = 0
KCA1 210617Z 17016KT 18/08 A2972 RMK A01 T01790083  RH  053%=      5-min Rain = 0
KCA1 210618Z 17012KT 18/08 A2972 RMK A01 T01790083  RH  053%=      5-min Rain = 0
KCA1 210619Z 17016G21KT 18/08 A2973 RMK A01 T01780083  RH  054%=      5-min Rain = 0
KCA1 210620Z 18017G23KT 18/08 A2973 RMK A01 T01780083  RH  054%=      5-min Rain = 0
KCA1 210621Z 17015KT 18/08 A2973 RMK A01 T01780082  RH  053%=      5-min Rain = 0
KCA1 210622Z 18014KT 18/08 A2973 RMK A01 T01780082  RH  053%=      5-min Rain = 0
KCA1 210623Z 18014KT 18/08 A2973 RMK A01 T01780082  RH  053%=      5-min Rain = 0
KCA1 210624Z 17017KT 18/08 A2973 RMK A01 T01780082  RH  053%=      5-min Rain = 0
KCA1 210625Z 18017G22KT 18/08 A2973 RMK A01 T01790082  RH  053%=      5-min Rain = 0
KCA1 210626Z 17015G21KT 18/08 A2973 RMK A01 T01800082  RH  053%=      5-min Rain = 0
KCA1 210627Z 17016KT 18/08 A2973 RMK A01 T01800082  RH  053%=      5-min Rain = 0
KCA1 210628Z 18015KT 18/08 A2972 RMK A01 T01790082  RH  053%=      5-min Rain = 0
KCA1 210629Z 17014KT 18/08 A2972 RMK A01 T01790082  RH  053%=      5-min Rain = 0
KCA1 210630Z 17015KT 18/08 A2972 RMK A01 T01780082  RH  053%=      5-min Rain = 0
KCA1 210631Z 18015KT 18/08 A2972 RMK A01 T01780082  RH  053%=      5-min Rain = 0
KCA1 210632Z 17015KT 18/08 A2972 RMK A01 T01790082  RH  053%=      5-min Rain = 0
KCA1 210633Z 17014KT 18/08 A2972 RMK A01 T01780082  RH  053%=      5-min Rain = 0
KCA1 210634Z 18013KT 18/08 A2973 RMK A01 T01780082  RH  053%=      5-min Rain = 0
KCA1 210635Z 17014KT 18/08 A2973 RMK A01 T01780082  RH  053%=      5-min Rain = 0
KCA1 210636Z 17014G19KT 18/08 A2973 RMK A01 T01780082  RH  053%=      5-min Rain = 0
KCA1 210637Z 18015G21KT 18/08 A2973 RMK A01 T01780082  RH  053%=      5-min Rain = 0
KCA1 210638Z 18017KT 18/08 A2973 RMK A01 T01780082  RH  053%=      5-min Rain = 0
KCA1 210639Z 18013KT 18/08 A2973 RMK A01 T01780082  RH  053%=      5-min Rain = 0
KCA1 210640Z 18011KT 18/08 A2973 RMK A01 T01790082  RH  053%=      5-min Rain = 0
KCA1 210641Z 18012KT 18/08 A2973 RMK A01 T01780082  RH  053%=      5-min Rain = 0
KCA1 210642Z 18010KT 18/08 A2973 RMK A01 T01770081  RH  053%=      5-min Rain = 0
KCA1 210643Z 18012G18KT 18/08 A2973 RMK A01 T01770082  RH  054%=      5-min Rain = 0
KCA1 210644Z 18010KT 18/08 A2973 RMK A01 T01770082  RH  054%=      5-min Rain = 0
KCA1 210645Z 17011KT 18/08 A2973 RMK A01 T01770082  RH  054%=      5-min Rain = 0
KCA1 210646Z 18016KT 18/08 A2973 RMK A01 T01770081  RH  054%=      5-min Rain = 0
KCA1 210647Z 17013KT 18/08 A2973 RMK A01 T01780081  RH  053%=      5-min Rain = 0
KCA1 210648Z 18013G18KT 18/08 A2973 RMK A01 T01780081  RH  053%=      5-min Rain = 0
KCA1 210649Z 17014KT 18/08 A2973 RMK A01 T01780081  RH  053%=      5-min Rain = 0
KCA1 210650Z 17012KT 18/08 A2973 RMK A01 T01790081  RH  053%=      5-min Rain = 0
KCA1 210651Z 17014KT 18/08 A2973 RMK A01 T01790081  RH  053%=      5-min Rain = 0
KCA1 210652Z 18015KT 18/08 A2973 RMK A01 T01790081  RH  053%=      5-min Rain = 0
KCA1 210653Z 18015G20KT 18/08 A2973 RMK A01 T01800082  RH  052%=      5-min Rain = 0
KCA1 210654Z 18014KT 18/08 A2973 RMK A01 T01810082  RH  052%=      5-min Rain = 0
KCA1 210655Z 17013G18KT 18/08 A2973 RMK A01 T01810081  RH  052%=      5-min Rain = 0
KCA1 210656Z 18014KT 18/08 A2973 RMK A01 T01810081  RH  052%=      5-min Rain = 0
KCA1 210657Z 18011KT 18/08 A2973 RMK A01 T01810081  RH  052%=      5-min Rain = 0
KCA1 210658Z 18010KT 18/08 A2973 RMK A01 T01810082  RH  052%=      5-min Rain = 0
KCA1 210659Z 17010KT 18/08 A2973 RMK A01 T01810082  RH  052%=      5-min Rain = 0
KCA1 210700Z 18008KT 18/08 A2973 RMK A01 T01800081  RH  052%=      5-min Rain = 0
KCA1 210701Z 18010KT 18/08 A2973 RMK A01 T01790081  RH  053%=      5-min Rain = 0
KCA1 210702Z 18009KT 18/08 A2973 RMK A01 T01790081  RH  053%=      5-min Rain = 0
KCA1 210703Z 19009KT 18/08 A2973 RMK A01 T01800081  RH  052%=      5-min Rain = 0
KCA1 210704Z 18007KT 18/08 A2973 RMK A01 T01800081  RH  052%=      5-min Rain = 0
KCA1 210705Z 18006KT 18/08 A2973 RMK A01 T01800081  RH  052%=      5-min Rain = 0
KCA1 210706Z 18006KT 18/08 A2973 RMK A01 T01800082  RH  052%=      5-min Rain = 0
KCA1 210707Z 17005KT 18/08 A2973 RMK A01 T01800081  RH  053%=      5-min Rain = 0
KCA1 210708Z 18004KT 18/08 A2973 RMK A01 T01800082  RH  053%=      5-min Rain = 0
KCA1 210709Z 18003KT 18/08 A2973 RMK A01 T01790082  RH  053%=      5-min Rain = 0
KCA1 210710Z 16004KT 18/08 A2974 RMK A01 T01790081  RH  053%=      5-min Rain = 0
KCA1 210711Z 16002KT 18/08 A2974 RMK A01 T01780081  RH  053%=      5-min Rain = 0
KCA1 210712Z 15002KT 18/08 A2974 RMK A01 T01780081  RH  053%=      5-min Rain = 0
KCA1 210713Z 16003KT 18/08 A2974 RMK A01 T01770081  RH  053%=      5-min Rain = 0
KCA1 210714Z 11001KT 18/08 A2974 RMK A01 T01770081  RH  053%=      5-min Rain = 0
KCA1 210715Z 02002KT 18/08 A2974 RMK A01 T01760081  RH  054%=      5-min Rain = 0
KCA1 210716Z 01002KT 18/08 A2974 RMK A01 T01750081  RH  054%=      5-min Rain = 0
KCA1 210717Z 03002KT 17/08 A2974 RMK A01 T01740081  RH  054%=      5-min Rain = 0
KCA1 210718Z 09003KT 17/08 A2974 RMK A01 T01730081  RH  054%=      5-min Rain = 0
KCA1 210719Z 11005KT 17/08 A2974 RMK A01 T01730081  RH  055%=      5-min Rain = 0
KCA1 210720Z 09003KT 17/08 A2974 RMK A01 T01730081  RH  055%=      5-min Rain = 0
KCA1 210721Z 12002KT 17/08 A2974 RMK A01 T01720081  RH  055%=      5-min Rain = 0
KCA1 210722Z 10004KT 17/08 A2974 RMK A01 T01710081  RH  056%=      5-min Rain = 0
KCA1 210723Z 09005KT 17/08 A2973 RMK A01 T01710082  RH  056%=      5-min Rain = 0
KCA1 210724Z 11004KT 17/08 A2973 RMK A01 T01710082  RH  056%=      5-min Rain = 0
KCA1 210725Z 09004KT 17/08 A2973 RMK A01 T01710082  RH  056%=      5-min Rain = 0
KCA1 210726Z 10006KT 17/08 A2973 RMK A01 T01710081  RH  056%=      5-min Rain = 0
KCA1 210727Z 06003KT 17/08 A2973 RMK A01 T01700082  RH  056%=      5-min Rain = 0
KCA1 210728Z 08001KT 17/08 A2973 RMK A01 T01690081  RH  056%=      5-min Rain = 0
KCA1 210729Z 06005KT 17/08 A2973 RMK A01 T01680081  RH  056%=      5-min Rain = 0
KCA1 210730Z 04003KT 17/08 A2973 RMK A01 T01670081  RH  057%=      5-min Rain = 0
KCA1 210731Z 05007KT 17/08 A2973 RMK A01 T01660081  RH  057%=      5-min Rain = 0
KCA1 210732Z 07006KT 16/08 A2973 RMK A01 T01640081  RH  058%=      5-min Rain = 0
KCA1 210733Z 07006KT 17/08 A2973 RMK A01 T01650081  RH  058%=      5-min Rain = 0
KCA1 210734Z 09003KT 17/08 A2973 RMK A01 T01650081  RH  058%=      5-min Rain = 0
KCA1 210735Z 13002KT 17/08 A2973 RMK A01 T01650081  RH  057%=      5-min Rain = 0
KCA1 210736Z 10003KT 17/08 A2973 RMK A01 T01660081  RH  057%=      5-min Rain = 0
KCA1 210737Z 07006KT 17/08 A2973 RMK A01 T01670081  RH  057%=      5-min Rain = 0
KCA1 210738Z 05005KT 17/08 A2973 RMK A01 T01670081  RH  057%=      5-min Rain = 0
KCA1 210739Z 05004KT 17/08 A2973 RMK A01 T01700082  RH  056%=      5-min Rain = 0
KCA1 210740Z 05008KT 17/08 A2973 RMK A01 T01710082  RH  056%=      5-min Rain = 0
KCA1 210741Z 08005KT 17/08 A2973 RMK A01 T01680081  RH  056%=      5-min Rain = 0
KCA1 210742Z 08004KT 17/08 A2973 RMK A01 T01660080  RH  057%=      5-min Rain = 0
KCA1 210743Z 08006KT 16/08 A2973 RMK A01 T01640081  RH  058%=      5-min Rain = 0
KCA1 210744Z 09006KT 16/08 A2973 RMK A01 T01640081  RH  058%=      5-min Rain = 0
KCA1 210745Z 10006KT 17/08 A2973 RMK A01 T01660082  RH  057%=      5-min Rain = 0
KCA1 210746Z 09006KT 17/08 A2973 RMK A01 T01680082  RH  057%=      5-min Rain = 0
KCA1 210747Z 09005KT 17/08 A2973 RMK A01 T01680082  RH  057%=      5-min Rain = 0
KCA1 210748Z 10005KT 17/08 A2973 RMK A01 T01660081  RH  057%=      5-min Rain = 0
KCA1 210749Z 09005KT 16/08 A2973 RMK A01 T01640081  RH  058%=      5-min Rain = 0
KCA1 210750Z 11004KT 16/08 A2973 RMK A01 T01620081  RH  058%=      5-min Rain = 0
KCA1 210751Z 09005KT 16/08 A2973 RMK A01 T01610081  RH  059%=      5-min Rain = 0
KCA1 210752Z 08005KT 16/08 A2973 RMK A01 T01600081  RH  059%=      5-min Rain = 0
KCA1 210753Z 07005KT 16/08 A2973 RMK A01 T01590081  RH  060%=      5-min Rain = 0
KCA1 210754Z 10004KT 16/08 A2973 RMK A01 T01580082  RH  060%=      5-min Rain = 0
KCA1 210755Z 10004KT 16/08 A2973 RMK A01 T01580082  RH  060%=      5-min Rain = 0
KCA1 210756Z 08005KT 16/08 A2972 RMK A01 T01600082  RH  060%=      5-min Rain = 0
KCA1 210757Z 09005KT 16/08 A2972 RMK A01 T01620082  RH  059%=      5-min Rain = 0
KCA1 210758Z 07003KT 17/08 A2972 RMK A01 T01650082  RH  058%=      5-min Rain = 0
KCA1 210759Z 09005KT 17/08 A2972 RMK A01 T01650082  RH  058%=      5-min Rain = 0
KCA1 210800Z 08004KT 17/08 A2972 RMK A01 T01660082  RH  057%=      5-min Rain = 0
KCA1 210801Z 07004KT 17/08 A2972 RMK A01 T01680082  RH  057%=      5-min Rain = 0
KCA1 210802Z 09002G7KT 17/08 A2972 RMK A01 T01680082  RH  057%=      5-min Rain = 0
KCA1 210803Z 05005KT 17/08 A2972 RMK A01 T01670082  RH  057%=      5-min Rain = 0
KCA1 210804Z 10006KT 17/08 A2972 RMK A01 T01650081  RH  058%=      5-min Rain = 0
KCA1 210805Z 12005KT 16/08 A2972 RMK A01 T01630081  RH  058%=      5-min Rain = 0
KCA1 210806Z 10004KT 17/08 A2972 RMK A01 T01650081  RH  058%=      5-min Rain = 0
KCA1 210807Z 08007KT 17/08 A2972 RMK A01 T01660081  RH  057%=      5-min Rain = 0
KCA1 210808Z 10007KT 17/08 A2972 RMK A01 T01650082  RH  058%=      5-min Rain = 0
KCA1 210809Z 09005KT 16/08 A2972 RMK A01 T01640082  RH  058%=      5-min Rain = 0
KCA1 210810Z 10006KT 16/08 A2972 RMK A01 T01640081  RH  058%=      5-min Rain = 0
KCA1 210811Z 07004KT 17/08 A2972 RMK A01 T01650081  RH  058%=      5-min Rain = 0
KCA1 210812Z 09004KT 16/08 A2973 RMK A01 T01640082  RH  058%=      5-min Rain = 0
KCA1 210813Z 10003KT 16/08 A2973 RMK A01 T01640082  RH  058%=      5-min Rain = 0
KCA1 210814Z 08004KT 16/08 A2972 RMK A01 T01640082  RH  058%=      5-min Rain = 0
KCA1 210815Z 07005KT 16/08 A2972 RMK A01 T01630081  RH  058%=      5-min Rain = 0
KCA1 210816Z 10004KT 16/08 A2972 RMK A01 T01610081  RH  059%=      5-min Rain = 0
KCA1 210817Z 09005KT 16/08 A2972 RMK A01 T01600081  RH  059%=      5-min Rain = 0
KCA1 210818Z 09006KT 16/08 A2972 RMK A01 T01590081  RH  060%=      5-min Rain = 0
KCA1 210819Z 08004KT 16/08 A2972 RMK A01 T01580081  RH  060%=      5-min Rain = 0
KCA1 210820Z 09004KT 16/08 A2972 RMK A01 T01590081  RH  060%=      5-min Rain = 0
KCA1 210821Z 08004KT 16/08 A2972 RMK A01 T01590081  RH  060%=      5-min Rain = 0
KCA1 210822Z 05005KT 16/08 A2972 RMK A01 T01590081  RH  060%=      5-min Rain = 0
KCA1 210823Z 06004KT 16/08 A2972 RMK A01 T01610081  RH  059%=      5-min Rain = 0
KCA1 210824Z 07004KT 16/08 A2972 RMK A01 T01610081  RH  059%=      5-min Rain = 0
KCA1 210825Z 06003KT 16/08 A2972 RMK A01 T01600081  RH  059%=      5-min Rain = 0
KCA1 210826Z 06004KT 16/08 A2972 RMK A01 T01590080  RH  060%=      5-min Rain = 0
KCA1 210827Z 07004KT 16/08 A2972 RMK A01 T01570080  RH  060%=      5-min Rain = 0
KCA1 210828Z 08005KT 16/08 A2972 RMK A01 T01560080  RH  061%=      5-min Rain = 0
KCA1 210829Z 07006KT 15/08 A2972 RMK A01 T01540080  RH  061%=      5-min Rain = 0
KCA1 210830Z 07005KT 15/08 A2972 RMK A01 T01540080  RH  061%=      5-min Rain = 0
KCA1 210831Z 08006KT 16/08 A2972 RMK A01 T01550081  RH  061%=      5-min Rain = 0
KCA1 210832Z 08006KT 16/08 A2972 RMK A01 T01550081  RH  061%=      5-min Rain = 0
KCA1 210833Z 09007KT 15/08 A2972 RMK A01 T01540080  RH  062%=      5-min Rain = 0
KCA1 210834Z 08006KT 15/08 A2972 RMK A01 T01540081  RH  062%=      5-min Rain = 0
KCA1 210835Z 07006KT 16/08 A2972 RMK A01 T01550081  RH  061%=      5-min Rain = 0
KCA1 210836Z 10006KT 15/08 A2972 RMK A01 T01530080  RH  062%=      5-min Rain = 0
KCA1 210837Z 10009KT 15/08 A2971 RMK A01 T01520080  RH  062%=      5-min Rain = 0
KCA1 210838Z 11008KT 15/08 A2972 RMK A01 T01520081  RH  062%=      5-min Rain = 0
KCA1 210839Z 11006KT 15/08 A2972 RMK A01 T01530081  RH  062%=      5-min Rain = 0
KCA1 210840Z 10007KT 15/08 A2971 RMK A01 T01540082  RH  062%=      5-min Rain = 0
KCA1 210841Z 11007KT 16/08 A2972 RMK A01 T01560082  RH  062%=      5-min Rain = 0
KCA1 210842Z 11007KT 16/08 A2971 RMK A01 T01560082  RH  061%=      5-min Rain = 0
KCA1 210843Z 12008KT 16/08 A2971 RMK A01 T01560082  RH  061%=      5-min Rain = 0
KCA1 210844Z 11007KT 16/08 A2971 RMK A01 T01570083  RH  061%=      5-min Rain = 0
KCA1 210845Z 11006KT 16/08 A2971 RMK A01 T01560083  RH  061%=      5-min Rain = 0
KCA1 210846Z 11008KT 16/08 A2971 RMK A01 T01560082  RH  061%=      5-min Rain = 0
KCA1 210847Z 11007KT 16/08 A2971 RMK A01 T01560083  RH  062%=      5-min Rain = 0
KCA1 210848Z 12009KT 16/08 A2971 RMK A01 T01560083  RH  062%=      5-min Rain = 0
KCA1 210849Z 12009KT 16/08 A2971 RMK A01 T01560082  RH  062%=      5-min Rain = 0
KCA1 210850Z 12008KT 16/08 A2971 RMK A01 T01560082  RH  061%=      5-min Rain = 0
KCA1 210851Z 11008KT 16/08 A2971 RMK A01 T01560082  RH  061%=      5-min Rain = 0
KCA1 210852Z 10007KT 16/08 A2971 RMK A01 T01560082  RH  061%=      5-min Rain = 0
KCA1 210853Z 11007KT 16/08 A2971 RMK A01 T01560082  RH  061%=      5-min Rain = 0
KCA1 210854Z 11007KT 16/08 A2971 RMK A01 T01570083  RH  061%=      5-min Rain = 0
KCA1 210855Z 11008KT 16/08 A2971 RMK A01 T01570082  RH  061%=      5-min Rain = 0
KCA1 210856Z 12008KT 16/08 A2971 RMK A01 T01560082  RH  061%=      5-min Rain = 0
KCA1 210857Z 13006KT 16/08 A2971 RMK A01 T01580083  RH  061%=      5-min Rain = 0
KCA1 210858Z 11005KT 16/08 A2971 RMK A01 T01590083  RH  061%=      5-min Rain = 0
KCA1 210859Z 12005KT 16/08 A2971 RMK A01 T01580083  RH  061%=      5-min Rain = 0
KCA1 210900Z 12005KT 16/08 A2971 RMK A01 T01570082  RH  061%=      5-min Rain = 0
KCA1 210901Z 12005KT 16/08 A2972 RMK A01 T01560082  RH  061%=      5-min Rain = 0
KCA1 210902Z 13004KT 16/08 A2972 RMK A01 T01560082  RH  061%=      5-min Rain = 0
KCA1 210903Z 11005KT 16/08 A2972 RMK A01 T01570082  RH  061%=      5-min Rain = 0
KCA1 210904Z 11004KT 16/08 A2972 RMK A01 T01570082  RH  061%=      5-min Rain = 0
KCA1 210905Z 10003KT 16/08 A2971 RMK A01 T01580082  RH  061%=      5-min Rain = 0
KCA1 210906Z 12004KT 16/08 A2971 RMK A01 T01580082  RH  061%=      5-min Rain = 0
KCA1 210907Z 13002KT 16/08 A2972 RMK A01 T01580082  RH  061%=      5-min Rain = 0
KCA1 210908Z 05001KT 16/08 A2972 RMK A01 T01580082  RH  061%=      5-min Rain = 0
KCA1 210909Z 33002KT 16/08 A2973 RMK A01 T01580082  RH  061%=      5-min Rain = 0
KCA1 210910Z 28006KT 16/08 A2974 RMK A01 T01560082  RH  061%=      5-min Rain = 0
KCA1 210911Z 28010KT 15/08 A2975 RMK A01 T01540081  RH  062%=      5-min Rain = 0
KCA1 210912Z 28011KT 15/08 A2975 RMK A01 T01530081  RH  062%=      5-min Rain = 0
KCA1 210913Z 25006KT 15/08 A2975 RMK A01 T01540082  RH  062%=      5-min Rain = 0
KCA1 210914Z 20006KT 16/08 A2974 RMK A01 T01550082  RH  062%=      5-min Rain = 0
KCA1 210915Z 17008KT 16/08 A2971 RMK A01 T01550081  RH  061%=      5-min Rain = 0
KCA1 210916Z 17013KT 16/08 A297 RMK A01 T01560080  RH  061%=      5-min Rain = 0
KCA1 210917Z 16014KT 16/08 A297 RMK A01 T01580081  RH  060%=      5-min Rain = 0
KCA1 210918Z 17017G22KT 16/08 A297 RMK A01 T01570081  RH  061%=      5-min Rain = 0
KCA1 210919Z 18015KT 16/08 A2971 RMK A01 T01590081  RH  060%=      5-min Rain = 0
KCA1 210920Z 23010KT 16/08 A2972 RMK A01 T01610081  RH  059%=      5-min Rain = 0
KCA1 210921Z 26012KT 16/08 A2974 RMK A01 T01620081  RH  059%=      5-min Rain = 0
KCA1 210922Z 31015KT 16/08 A2975 RMK A01 T01610081  RH  059%=      5-min Rain = 0
KCA1 210923Z 30014KT 16/08 A2975 RMK A01 T01590081  RH  060%=      5-min Rain = 0
KCA1 210924Z 29015G20KT 16/08 A2975 RMK A01 T01580080  RH  060%=      5-min Rain = 0
KCA1 210925Z 31012KT 16/08 A2975 RMK A01 T01590081  RH  059%=      5-min Rain = 0
KCA1 210926Z 31012KT 16/08 A2975 RMK A01 T01600080  RH  059%=      5-min Rain = 0
KCA1 210927Z 30009KT 16/08 A2975 RMK A01 T01600080  RH  059%=      5-min Rain = 0
KCA1 210928Z 29007KT 16/08 A2974 RMK A01 T01600079  RH  059%=      5-min Rain = 0
KCA1 210929Z 26006KT 16/08 A2973 RMK A01 T01630079  RH  058%=      5-min Rain = 0
KCA1 210930Z 21009KT 17/08 A2972 RMK A01 T01670079  RH  056%=      5-min Rain = 0
KCA1 210931Z 19012KT 17/08 A2972 RMK A01 T01690078  RH  055%=      5-min Rain = 0
KCA1 210932Z 20014KT 17/08 A2972 RMK A01 T01690078  RH  055%=      5-min Rain = 0
KCA1 210933Z 20014KT 17/08 A2972 RMK A01 T01690078  RH  055%=      5-min Rain = 0
KCA1 210934Z 20017KT 17/08 A2972 RMK A01 T01690077  RH  055%=      5-min Rain = 0
KCA1 210935Z 20018KT 17/08 A2972 RMK A01 T01710078  RH  054%=      5-min Rain = 0
KCA1 210936Z 19018KT 17/08 A2971 RMK A01 T01710077  RH  054%=      5-min Rain = 0
KCA1 210937Z 19018KT 17/08 A2971 RMK A01 T01700077  RH  054%=      5-min Rain = 0
KCA1 210938Z 19017KT 17/08 A2971 RMK A01 T01700077  RH  054%=      5-min Rain = 0
KCA1 210939Z 18014KT 17/08 A2971 RMK A01 T01700077  RH  054%=      5-min Rain = 0
KCA1 210940Z 18014KT 17/08 A2971 RMK A01 T01680077  RH  055%=      5-min Rain = 0
KCA1 210941Z 18013KT 17/08 A2971 RMK A01 T01660077  RH  056%=      5-min Rain = 0
KCA1 210942Z 18014KT 17/08 A2971 RMK A01 T01650077  RH  056%=      5-min Rain = 0
KCA1 210943Z 18014KT 16/08 A2971 RMK A01 T01640077  RH  056%=      5-min Rain = 0
KCA1 210944Z 18015G20KT 16/08 A2971 RMK A01 T01640077  RH  057%=      5-min Rain = 0
KCA1 210945Z 18015KT 16/08 A2971 RMK A01 T01630077  RH  057%=      5-min Rain = 0
KCA1 210946Z 18012KT 16/08 A2971 RMK A01 T01630077  RH  057%=      5-min Rain = 0
KCA1 210947Z 18011KT 16/08 A2971 RMK A01 T01630077  RH  057%=      5-min Rain = 0
KCA1 210948Z 18010KT 16/08 A2971 RMK A01 T01620078  RH  057%=      5-min Rain = 0
KCA1 210949Z 18010KT 16/08 A2972 RMK A01 T01610078  RH  058%=      5-min Rain = 0
KCA1 210950Z 18008KT 16/08 A2972 RMK A01 T01600078  RH  058%=      5-min Rain = 0
KCA1 210951Z 18006KT 16/08 A2972 RMK A01 T01590078  RH  058%=      5-min Rain = 0
KCA1 210952Z 18006KT 16/08 A2972 RMK A01 T01590078  RH  059%=      5-min Rain = 0
KCA1 210953Z 19004KT 16/08 A2972 RMK A01 T01580078  RH  059%=      5-min Rain = 0
KCA1 210954Z 19002KT 16/08 A2973 RMK A01 T01570078  RH  059%=      5-min Rain = 0
KCA1 210955Z 23001KT 16/08 A2973 RMK A01 T01570078  RH  059%=      5-min Rain = 0
KCA1 210956Z 36000KT 16/08 A2973 RMK A01 T01560078  RH  059%=      5-min Rain = 0
KCA1 210957Z 01001KT 16/08 A2973 RMK A01 T01550078  RH  060%=      5-min Rain = 0
KCA1 210958Z 01001KT 16/08 A2973 RMK A01 T01550078  RH  060%=      5-min Rain = 0
KCA1 210959Z 04001KT 15/08 A2973 RMK A01 T01540077  RH  060%=      5-min Rain = 0
KCA1 211000Z 04000KT 16/08 A2973 RMK A01 T01550078  RH  060%=      5-min Rain = 0
KCA1 211001Z 05002KT 15/08 A2973 RMK A01 T01540077  RH  060%=      5-min Rain = 0
KCA1 211002Z 04003KT 15/08 A2973 RMK A01 T01530077  RH  061%=      5-min Rain = 0
KCA1 211003Z 02004KT 15/08 A2973 RMK A01 T01520077  RH  061%=      5-min Rain = 0
KCA1 211004Z 03004KT 15/08 A2973 RMK A01 T01520077  RH  061%=      5-min Rain = 0
KCA1 211005Z 04005KT 15/08 A2973 RMK A01 T01500077  RH  062%=      5-min Rain = 0
KCA1 211006Z 05005KT 15/08 A2973 RMK A01 T01490077  RH  062%=      5-min Rain = 0
KCA1 211007Z 06004KT 15/08 A2973 RMK A01 T01490077  RH  062%=      5-min Rain = 0
KCA1 211008Z 09002KT 15/08 A2973 RMK A01 T01490077  RH  062%=      5-min Rain = 0
KCA1 211009Z 08002KT 15/08 A2973 RMK A01 T01500077  RH  062%=      5-min Rain = 0
KCA1 211010Z 09003KT 15/08 A2973 RMK A01 T01510077  RH  061%=      5-min Rain = 0
KCA1 211011Z 12003KT 15/08 A2973 RMK A01 T01510078  RH  061%=      5-min Rain = 0
KCA1 211012Z 13004KT 15/08 A2973 RMK A01 T01510077  RH  061%=      5-min Rain = 0
KCA1 211013Z 15004KT 15/08 A2973 RMK A01 T01520077  RH  061%=      5-min Rain = 0
KCA1 211014Z 15007KT 15/08 A2973 RMK A01 T01520078  RH  061%=      5-min Rain = 0
KCA1 211015Z 16007KT 15/08 A2973 RMK A01 T01530078  RH  061%=      5-min Rain = 0
KCA1 211016Z 16007KT 15/08 A2973 RMK A01 T01540078  RH  060%=      5-min Rain = 0
KCA1 211017Z 16008KT 15/08 A2973 RMK A01 T01540078  RH  060%=      5-min Rain = 0
KCA1 211018Z 16008KT 15/08 A2972 RMK A01 T01530077  RH  061%=      5-min Rain = 0
KCA1 211019Z 17009KT 15/08 A2972 RMK A01 T01510077  RH  061%=      5-min Rain = 0
KCA1 211020Z 16010KT 15/08 A2972 RMK A01 T01500077  RH  062%=      5-min Rain = 0
KCA1 211021Z 15010KT 15/08 A2972 RMK A01 T01500077  RH  062%=      5-min Rain = 0
KCA1 211022Z 16010KT 15/08 A2972 RMK A01 T01500077  RH  062%=      5-min Rain = 0
KCA1 211023Z 16009KT 15/08 A2972 RMK A01 T01490078  RH  062%=      5-min Rain = 0
KCA1 211024Z 15009KT 15/08 A2972 RMK A01 T01490078  RH  062%=      5-min Rain = 0
KCA1 211025Z 15008KT 15/08 A2972 RMK A01 T01490078  RH  063%=      5-min Rain = 0
KCA1 211026Z 16007KT 15/08 A2972 RMK A01 T01490078  RH  063%=      5-min Rain = 0
KCA1 211027Z 15007KT 15/08 A2972 RMK A01 T01490078  RH  062%=      5-min Rain = 0
KCA1 211028Z 16006KT 15/08 A2972 RMK A01 T01500078  RH  062%=      5-min Rain = 0
KCA1 211029Z 15005KT 15/08 A2972 RMK A01 T01500078  RH  062%=      5-min Rain = 0
KCA1 211030Z 15005KT 15/08 A2972 RMK A01 T01500078  RH  062%=      5-min Rain = 0
KCA1 211031Z 17006KT 15/08 A2973 RMK A01 T01490078  RH  062%=      5-min Rain = 0
KCA1 211032Z 17006KT 15/08 A2973 RMK A01 T01490077  RH  062%=      5-min Rain = 0
KCA1 211033Z 16007KT 15/08 A2973 RMK A01 T01490078  RH  062%=      5-min Rain = 0
KCA1 211034Z 16009KT 15/08 A2972 RMK A01 T01500078  RH  062%=      5-min Rain = 0
KCA1 211035Z 16008KT 15/08 A2972 RMK A01 T01490078  RH  062%=      5-min Rain = 0
KCA1 211036Z 16008KT 15/08 A2972 RMK A01 T01500078  RH  062%=      5-min Rain = 0
KCA1 211037Z 17008KT 15/08 A2972 RMK A01 T01510079  RH  062%=      5-min Rain = 0
KCA1 211038Z 16009KT 15/08 A2972 RMK A01 T01510078  RH  062%=      5-min Rain = 0
KCA1 211039Z 17008KT 15/08 A2972 RMK A01 T01530079  RH  061%=      5-min Rain = 0
KCA1 211040Z 17009KT 16/08 A2972 RMK A01 T01560079  RH  060%=      5-min Rain = 0
KCA1 211041Z 16008KT 16/08 A2972 RMK A01 T01560079  RH  060%=      5-min Rain = 0
KCA1 211042Z 16006KT 16/08 A2972 RMK A01 T01550079  RH  060%=      5-min Rain = 0
KCA1 211043Z 16009G14KT 15/08 A2972 RMK A01 T01540079  RH  061%=      5-min Rain = 0
KCA1 211044Z 16011KT 15/08 A2972 RMK A01 T01530078  RH  061%=      5-min Rain = 0
KCA1 211045Z 16009KT 15/08 A2972 RMK A01 T01530079  RH  061%=      5-min Rain = 0
KCA1 211046Z 17009KT 15/08 A2972 RMK A01 T01520079  RH  061%=      5-min Rain = 0
KCA1 211047Z 17010KT 15/08 A2972 RMK A01 T01520079  RH  062%=      5-min Rain = 0
KCA1 211048Z 16010KT 15/08 A2972 RMK A01 T01510079  RH  062%=      5-min Rain = 0
KCA1 211049Z 16009KT 15/08 A2972 RMK A01 T01490078  RH  062%=      5-min Rain = 0
KCA1 211050Z 17010KT 15/08 A2972 RMK A01 T01480078  RH  063%=      5-min Rain = 0
KCA1 211051Z 17011KT 15/08 A2972 RMK A01 T01470079  RH  063%=      5-min Rain = 0
KCA1 211052Z 17009KT 15/08 A2972 RMK A01 T01480079  RH  063%=      5-min Rain = 0
KCA1 211053Z 17008KT 15/08 A2972 RMK A01 T01480079  RH  063%=      5-min Rain = 0
KCA1 211054Z 17010KT 15/08 A2972 RMK A01 T01480078  RH  063%=      5-min Rain = 0
KCA1 211055Z 16009KT 15/08 A2972 RMK A01 T01490079  RH  063%=      5-min Rain = 0
KCA1 211056Z 17007KT 15/08 A2972 RMK A01 T01500079  RH  063%=      5-min Rain = 0
KCA1 211057Z 16006KT 15/08 A2972 RMK A01 T01490079  RH  063%=      5-min Rain = 0
KCA1 211058Z 15007KT 15/08 A2972 RMK A01 T01470079  RH  063%=      5-min Rain = 0
KCA1 211059Z 15007KT 15/08 A2972 RMK A01 T01460079  RH  064%=      5-min Rain = 0
KCA1 211100Z 15007KT 14/08 A2972 RMK A01 T01440078  RH  065%=      5-min Rain = 0
KCA1 211101Z 15007KT 14/08 A2972 RMK A01 T01430078  RH  065%=      5-min Rain = 0
KCA1 211102Z 15006KT 14/08 A2972 RMK A01 T01410078  RH  065%=      5-min Rain = 0
KCA1 211103Z 15006KT 14/08 A2972 RMK A01 T01400078  RH  066%=      5-min Rain = 0
KCA1 211104Z 14006KT 14/08 A2972 RMK A01 T01390078  RH  066%=      5-min Rain = 0
KCA1 211105Z 14006KT 14/08 A2972 RMK A01 T01370078  RH  067%=      5-min Rain = 0
KCA1 211106Z 14007KT 14/08 A2972 RMK A01 T01360079  RH  068%=      5-min Rain = 0
KCA1 211107Z 14007KT 14/08 A2972 RMK A01 T01360079  RH  068%=      5-min Rain = 0
KCA1 211108Z 15007KT 14/08 A2972 RMK A01 T01360080  RH  069%=      5-min Rain = 0
KCA1 211109Z 15007KT 14/08 A2972 RMK A01 T01360079  RH  069%=      5-min Rain = 0
KCA1 211110Z 15007KT 14/08 A2972 RMK A01 T01360079  RH  069%=      5-min Rain = 0
KCA1 211111Z 15007KT 14/08 A2972 RMK A01 T01350079  RH  069%=      5-min Rain = 0
KCA1 211112Z 15008KT 13/08 A2972 RMK A01 T01340079  RH  069%=      5-min Rain = 0
KCA1 211113Z 15007KT 13/08 A2972 RMK A01 T01340079  RH  069%=      5-min Rain = 0
KCA1 211114Z 15008KT 13/08 A2972 RMK A01 T01340080  RH  070%=      5-min Rain = 0
KCA1 211115Z 15008KT 13/08 A2972 RMK A01 T01340080  RH  070%=      5-min Rain = 0
KCA1 211116Z 15008KT 13/08 A2972 RMK A01 T01330080  RH  070%=      5-min Rain = 0
KCA1 211117Z 15008KT 13/08 A2972 RMK A01 T01330079  RH  070%=      5-min Rain = 0
KCA1 211118Z 15010KT 13/08 A2972 RMK A01 T01330079  RH  070%=      5-min Rain = 0
KCA1 211119Z 14009KT 13/08 A2972 RMK A01 T01340080  RH  070%=      5-min Rain = 0
KCA1 211120Z 15009KT 13/08 A2972 RMK A01 T01340080  RH  070%=      5-min Rain = 0
KCA1 211121Z 14010KT 13/08 A2972 RMK A01 T01340080  RH  070%=      5-min Rain = 0
KCA1 211122Z 14009KT 14/08 A2972 RMK A01 T01350080  RH  069%=      5-min Rain = 0
KCA1 211123Z 14010KT 14/08 A2972 RMK A01 T01360080  RH  069%=      5-min Rain = 0
KCA1 211124Z 14009KT 14/08 A2972 RMK A01 T01360080  RH  069%=      5-min Rain = 0
KCA1 211125Z 14008KT 14/08 A2972 RMK A01 T01360080  RH  069%=      5-min Rain = 0
KCA1 211126Z 14009KT 14/08 A2972 RMK A01 T01360080  RH  069%=      5-min Rain = 0
KCA1 211127Z 14008KT 14/08 A2972 RMK A01 T01350080  RH  069%=      5-min Rain = 0
KCA1 211128Z 14008KT 13/08 A2972 RMK A01 T01340080  RH  070%=      5-min Rain = 0
KCA1 211129Z 14009KT 13/08 A2972 RMK A01 T01330080  RH  070%=      5-min Rain = 0
KCA1 211130Z 15009KT 13/08 A2972 RMK A01 T01320080  RH  071%=      5-min Rain = 0
KCA1 211131Z 15009KT 13/08 A2972 RMK A01 T01320080  RH  071%=      5-min Rain = 0
KCA1 211132Z 15008KT 13/08 A2972 RMK A01 T01310080  RH  071%=      5-min Rain = 0
KCA1 211133Z 15009KT 13/08 A2972 RMK A01 T01300080  RH  071%=      5-min Rain = 0
KCA1 211134Z 15009KT 13/08 A2972 RMK A01 T01290080  RH  072%=      5-min Rain = 0
KCA1 211135Z 16009KT 13/08 A2972 RMK A01 T01290080  RH  072%=      5-min Rain = 0
KCA1 211136Z 15008KT 13/08 A2972 RMK A01 T01290080  RH  072%=      5-min Rain = 0
KCA1 211137Z 15007KT 13/08 A2972 RMK A01 T01300080  RH  072%=      5-min Rain = 0
KCA1 211138Z 15008KT 13/08 A2973 RMK A01 T01290080  RH  072%=      5-min Rain = 0
KCA1 211139Z 15008KT 13/08 A2973 RMK A01 T01290081  RH  072%=      5-min Rain = 0
KCA1 211140Z 16008KT 13/08 A2973 RMK A01 T01300081  RH  072%=      5-min Rain = 0
KCA1 211141Z 16008KT 13/08 A2973 RMK A01 T01300081  RH  072%=      5-min Rain = 0
KCA1 211142Z 16009KT 13/08 A2973 RMK A01 T01300081  RH  072%=      5-min Rain = 0
KCA1 211143Z 16007KT 13/08 A2973 RMK A01 T01300081  RH  072%=      5-min Rain = 0
KCA1 211144Z 15007KT 13/08 A2973 RMK A01 T01300081  RH  072%=      5-min Rain = 0
KCA1 211145Z 16008KT 13/08 A2973 RMK A01 T01300081  RH  072%=      5-min Rain = 0
KCA1 211146Z 16007KT 13/08 A2973 RMK A01 T01290081  RH  072%=      5-min Rain = 0
KCA1 211147Z 16007KT 13/08 A2973 RMK A01 T01280081  RH  073%=      5-min Rain = 0
KCA1 211148Z 15007KT 13/08 A2973 RMK A01 T01280081  RH  073%=      5-min Rain = 0
KCA1 211149Z 15007KT 13/08 A2973 RMK A01 T01270080  RH  073%=      5-min Rain = 0
KCA1 211150Z 15008KT 13/08 A2973 RMK A01 T01260080  RH  074%=      5-min Rain = 0
KCA1 211151Z 16007KT 13/08 A2973 RMK A01 T01250080  RH  074%=      5-min Rain = 0
KCA1 211152Z 15007KT 13/08 A2973 RMK A01 T01250081  RH  074%=      5-min Rain = 0
KCA1 211153Z 15007KT 13/08 A2973 RMK A01 T01250080  RH  074%=      5-min Rain = 0
KCA1 211154Z 15007KT 12/08 A2973 RMK A01 T01230080  RH  075%=      5-min Rain = 0
KCA1 211155Z 15008KT 12/08 A2973 RMK A01 T01220079  RH  075%=      5-min Rain = 0
KCA1 211156Z 15008KT 12/08 A2973 RMK A01 T01220080  RH  075%=      5-min Rain = 0
KCA1 211157Z 15008KT 12/08 A2973 RMK A01 T01210081  RH  076%=      5-min Rain = 0
KCA1 211158Z 14007KT 12/08 A2973 RMK A01 T01210081  RH  076%=      5-min Rain = 0
KCA1 211159Z 15007KT 12/08 A2973 RMK A01 T01200081  RH  077%=      5-min Rain = 0
KCA1 211200Z 15007KT 12/08 A2973 RMK A01 T01200081  RH  077%=      5-min Rain = 0
KCA1 211201Z 14007KT 12/08 A2973 RMK A01 T01190080  RH  077%=      5-min Rain = 0
KCA1 211202Z 15007KT 12/08 A2973 RMK A01 T01190080  RH  077%=      5-min Rain = 0
KCA1 211203Z 15007KT 12/08 A2973 RMK A01 T01190080  RH  077%=      5-min Rain = 0
KCA1 211204Z 15007KT 12/08 A2973 RMK A01 T01190081  RH  077%=      5-min Rain = 0
KCA1 211205Z 15008KT 12/08 A2973 RMK A01 T01190081  RH  078%=      5-min Rain = 0
KCA1 211206Z 15008KT 12/08 A2973 RMK A01 T01190081  RH  078%=      5-min Rain = 0
KCA1 211207Z 15008KT 12/08 A2973 RMK A01 T01190081  RH  078%=      5-min Rain = 0
KCA1 211208Z 15008KT 12/08 A2973 RMK A01 T01180081  RH  078%=      5-min Rain = 0
KCA1 211209Z 15008KT 12/08 A2973 RMK A01 T01170081  RH  078%=      5-min Rain = 0
KCA1 211210Z 15007KT 12/08 A2973 RMK A01 T01170081  RH  078%=      5-min Rain = 0
KCA1 211211Z 15007KT 12/08 A2973 RMK A01 T01170081  RH  078%=      5-min Rain = 0
KCA1 211212Z 15007KT 12/08 A2973 RMK A01 T01170081  RH  079%=      5-min Rain = 0
KCA1 211213Z 15008KT 12/08 A2973 RMK A01 T01170081  RH  079%=      5-min Rain = 0
KCA1 211214Z 15008KT 12/08 A2973 RMK A01 T01170081  RH  079%=      5-min Rain = 0
KCA1 211215Z 15007KT 12/08 A2974 RMK A01 T01170081  RH  079%=      5-min Rain = 0
KCA1 211216Z 16008KT 12/08 A2974 RMK A01 T01170081  RH  079%=      5-min Rain = 0
KCA1 211217Z 16008KT 12/08 A2974 RMK A01 T01170081  RH  078%=      5-min Rain = 0
KCA1 211218Z 15007KT 12/08 A2974 RMK A01 T01180081  RH  078%=      5-min Rain = 0
KCA1 211219Z 15007KT 12/08 A2974 RMK A01 T01180081  RH  078%=      5-min Rain = 0
KCA1 211220Z 14007KT 12/08 A2974 RMK A01 T01180082  RH  078%=      5-min Rain = 0
KCA1 211221Z 15007KT 12/08 A2974 RMK A01 T01180082  RH  079%=      5-min Rain = 0
KCA1 211222Z 15007KT 12/08 A2974 RMK A01 T01170082  RH  079%=      5-min Rain = 0
KCA1 211223Z 15007KT 12/08 A2974 RMK A01 T01170082  RH  079%=      5-min Rain = 0
KCA1 211224Z 15006KT 12/08 A2974 RMK A01 T01180082  RH  079%=      5-min Rain = 0
KCA1 211225Z 15007KT 12/08 A2974 RMK A01 T01180082  RH  078%=      5-min Rain = 0
KCA1 211226Z 15007KT 12/08 A2974 RMK A01 T01180082  RH  078%=      5-min Rain = 0
KCA1 211227Z 15007KT 12/08 A2974 RMK A01 T01180082  RH  078%=      5-min Rain = 0
KCA1 211228Z 15007KT 12/08 A2974 RMK A01 T01190082  RH  078%=      5-min Rain = 0
KCA1 211229Z 15006KT 12/08 A2974 RMK A01 T01190082  RH  078%=      5-min Rain = 0
KCA1 211230Z 15006KT 12/08 A2974 RMK A01 T01200083  RH  078%=      5-min Rain = 0
KCA1 211231Z 15006KT 12/08 A2974 RMK A01 T01200083  RH  078%=      5-min Rain = 0
KCA1 211232Z 15006KT 12/08 A2974 RMK A01 T01200083  RH  078%=      5-min Rain = 0
KCA1 211233Z 15007KT 12/08 A2974 RMK A01 T01210083  RH  078%=      5-min Rain = 0
KCA1 211234Z 15006KT 12/08 A2974 RMK A01 T01210083  RH  077%=      5-min Rain = 0
KCA1 211235Z 15008KT 12/08 A2974 RMK A01 T01220083  RH  077%=      5-min Rain = 0
KCA1 211236Z 15007KT 12/08 A2974 RMK A01 T01230084  RH  077%=      5-min Rain = 0
KCA1 211237Z 14006KT 12/08 A2974 RMK A01 T01230084  RH  077%=      5-min Rain = 0
KCA1 211238Z 15007KT 12/08 A2974 RMK A01 T01240084  RH  077%=      5-min Rain = 0
KCA1 211239Z 15006KT 13/08 A2974 RMK A01 T01250084  RH  076%=      5-min Rain = 0
KCA1 211240Z 15006KT 13/08 A2974 RMK A01 T01250084  RH  076%=      5-min Rain = 0
KCA1 211241Z 15006KT 13/09 A2974 RMK A01 T01260085  RH  076%=      5-min Rain = 0
KCA1 211242Z 15006KT 13/08 A2974 RMK A01 T01260084  RH  076%=      5-min Rain = 0
KCA1 211243Z 15006KT 13/09 A2974 RMK A01 T01270085  RH  076%=      5-min Rain = 0
KCA1 211244Z 15005KT 13/09 A2974 RMK A01 T01270085  RH  075%=      5-min Rain = 0
KCA1 211245Z 15006KT 13/09 A2974 RMK A01 T01280085  RH  075%=      5-min Rain = 0
KCA1 211246Z 15006KT 13/09 A2974 RMK A01 T01290085  RH  075%=      5-min Rain = 0
KCA1 211247Z 16006KT 13/09 A2974 RMK A01 T01290085  RH  074%=      5-min Rain = 0
KCA1 211248Z 16006KT 13/08 A2974 RMK A01 T01300084  RH  074%=      5-min Rain = 0
KCA1 211249Z 15007KT 13/09 A2974 RMK A01 T01310085  RH  074%=      5-min Rain = 0
KCA1 211250Z 16007KT 13/09 A2974 RMK A01 T01310085  RH  073%=      5-min Rain = 0
KCA1 211251Z 17008KT 13/09 A2974 RMK A01 T01320085  RH  073%=      5-min Rain = 0
KCA1 211252Z 16006KT 13/08 A2974 RMK A01 T01330084  RH  072%=      5-min Rain = 0
KCA1 211253Z 16007KT 13/09 A2974 RMK A01 T01340085  RH  072%=      5-min Rain = 0
KCA1 211254Z 16006KT 13/09 A2974 RMK A01 T01340085  RH  072%=      5-min Rain = 0
KCA1 211255Z 17007KT 13/09 A2974 RMK A01 T01340085  RH  072%=      5-min Rain = 0
KCA1 211256Z 17007KT 14/08 A2974 RMK A01 T01350084  RH  071%=      5-min Rain = 0
KCA1 211257Z 16005KT 14/09 A2975 RMK A01 T01360085  RH  071%=      5-min Rain = 0
KCA1 211258Z 16005KT 14/09 A2975 RMK A01 T01380087  RH  072%=      5-min Rain = 0
KCA1 211259Z 17008KT 14/09 A2974 RMK A01 T01390086  RH  070%=      5-min Rain = 0
KCA1 211300Z 17006KT 14/09 A2975 RMK A01 T01390085  RH  070%=      5-min Rain = 0
KCA1 211301Z 17007KT 14/09 A2975 RMK A01 T01400086  RH  070%=      5-min Rain = 0
KCA1 211302Z 16007KT 14/09 A2974 RMK A01 T01410085  RH  069%=      5-min Rain = 0
KCA1 211303Z 15006KT 14/09 A2974 RMK A01 T01420086  RH  069%=      5-min Rain = 0
KCA1 211304Z 16005KT 14/09 A2974 RMK A01 T01420087  RH  069%=      5-min Rain = 0
KCA1 211305Z 17006KT 14/09 A2974 RMK A01 T01430087  RH  069%=      5-min Rain = 0
KCA1 211306Z 16005KT 14/09 A2974 RMK A01 T01430086  RH  069%=      5-min Rain = 0
KCA1 211307Z 17005KT 14/09 A2974 RMK A01 T01430087  RH  069%=      5-min Rain = 0
KCA1 211308Z 17006KT 14/09 A2974 RMK A01 T01440087  RH  069%=      5-min Rain = 0
KCA1 211309Z 17006KT 14/09 A2974 RMK A01 T01440087  RH  068%=      5-min Rain = 0
KCA1 211310Z 18006KT 14/09 A2974 RMK A01 T01440086  RH  068%=      5-min Rain = 0
KCA1 211311Z 17006KT 15/09 A2974 RMK A01 T01450087  RH  068%=      5-min Rain = 0
KCA1 211312Z 16006KT 15/09 A2974 RMK A01 T01460087  RH  068%=      5-min Rain = 0
KCA1 211313Z 17007KT 15/09 A2974 RMK A01 T01460087  RH  067%=      5-min Rain = 0
KCA1 211314Z 18007KT 15/09 A2974 RMK A01 T01470085  RH  067%=      5-min Rain = 0
KCA1 211315Z 18005KT 15/09 A2974 RMK A01 T01470086  RH  067%=      5-min Rain = 0
KCA1 211316Z 18005KT 15/09 A2975 RMK A01 T01460086  RH  067%=      5-min Rain = 0
KCA1 211317Z 17005KT 15/09 A2975 RMK A01 T01460087  RH  068%=      5-min Rain = 0
KCA1 211318Z 18005KT 15/09 A2975 RMK A01 T01470087  RH  067%=      5-min Rain = 0
KCA1 211319Z 18007KT 15/09 A2975 RMK A01 T01470087  RH  067%=      5-min Rain = 0
KCA1 211320Z 19006KT 15/09 A2975 RMK A01 T01480087  RH  067%=      5-min Rain = 0
KCA1 211321Z 18007KT 15/09 A2975 RMK A01 T01480087  RH  067%=      5-min Rain = 0
KCA1 211322Z 19007KT 15/09 A2975 RMK A01 T01490088  RH  067%=      5-min Rain = 0
KCA1 211323Z 19005KT 15/09 A2975 RMK A01 T01490087  RH  066%=      5-min Rain = 0
KCA1 211324Z 19006KT 15/09 A2975 RMK A01 T01490088  RH  067%=      5-min Rain = 0
KCA1 211325Z 19007KT 15/09 A2975 RMK A01 T01500088  RH  066%=      5-min Rain = 0
KCA1 211326Z 19009KT 15/09 A2975 RMK A01 T01500087  RH  066%=      5-min Rain = 0
KCA1 211327Z 20009KT 15/09 A2975 RMK A01 T01510087  RH  066%=      5-min Rain = 0
KCA1 211328Z 19009KT 15/09 A2975 RMK A01 T01510086  RH  065%=      5-min Rain = 0
KCA1 211329Z 19008KT 15/09 A2975 RMK A01 T01510087  RH  065%=      5-min Rain = 0
KCA1 211330Z 18009KT 15/09 A2975 RMK A01 T01520086  RH  065%=      5-min Rain = 0
KCA1 211331Z 18008KT 15/09 A2975 RMK A01 T01520087  RH  065%=      5-min Rain = 0
KCA1 211332Z 18008KT 15/09 A2975 RMK A01 T01530088  RH  065%=      5-min Rain = 0
KCA1 211333Z 18007KT 15/09 A2975 RMK A01 T01530087  RH  065%=      5-min Rain = 0
KCA1 211334Z 19007KT 16/09 A2975 RMK A01 T01550089  RH  065%=      5-min Rain = 0
KCA1 211335Z 19009KT 16/09 A2975 RMK A01 T01560089  RH  064%=      5-min Rain = 0
KCA1 211336Z 18008KT 16/09 A2975 RMK A01 T01560088  RH  064%=      5-min Rain = 0
KCA1 211337Z 19007KT 16/09 A2975 RMK A01 T01560089  RH  064%=      5-min Rain = 0
KCA1 211338Z 19007KT 16/09 A2975 RMK A01 T01570089  RH  064%=      5-min Rain = 0
KCA1 211339Z 18007KT 16/09 A2975 RMK A01 T01580090  RH  064%=      5-min Rain = 0
KCA1 211340Z 18006KT 16/09 A2975 RMK A01 T01590090  RH  063%=      5-min Rain = 0
KCA1 211341Z 18006KT 16/09 A2975 RMK A01 T01600091  RH  063%=      5-min Rain = 0
KCA1 211342Z 17006KT 16/09 A2975 RMK A01 T01610091  RH  063%=      5-min Rain = 0
KCA1 211343Z 18006KT 16/09 A2975 RMK A01 T01620091  RH  063%=      5-min Rain = 0
KCA1 211344Z 18007KT 16/09 A2975 RMK A01 T01630092  RH  063%=      5-min Rain = 0
KCA1 211345Z 18008KT 16/09 A2975 RMK A01 T01640090  RH  062%=      5-min Rain = 0
KCA1 211346Z 18008KT 17/09 A2975 RMK A01 T01650091  RH  061%=      5-min Rain = 0
KCA1 211347Z 18008KT 17/09 A2975 RMK A01 T01650090  RH  061%=      5-min Rain = 0
KCA1 211348Z 18008KT 17/09 A2975 RMK A01 T01650091  RH  061%=      5-min Rain = 0
KCA1 211349Z 17009KT 17/09 A2975 RMK A01 T01650090  RH  061%=      5-min Rain = 0
KCA1 211350Z 18010KT 17/09 A2975 RMK A01 T01660090  RH  061%=      5-min Rain = 0
KCA1 211351Z 18009KT 17/09 A2975 RMK A01 T01660090  RH  061%=      5-min Rain = 0
KCA1 211352Z 19008KT 17/09 A2975 RMK A01 T01670090  RH  060%=      5-min Rain = 0
KCA1 211353Z 19008KT 17/09 A2975 RMK A01 T01670090  RH  060%=      5-min Rain = 0
KCA1 211354Z 18007KT 17/09 A2975 RMK A01 T01670090  RH  060%=      5-min Rain = 0
KCA1 211355Z 17008KT 17/09 A2975 RMK A01 T01680091  RH  060%=      5-min Rain = 0
KCA1 211356Z 18009KT 17/09 A2975 RMK A01 T01700091  RH  060%=      5-min Rain = 0
KCA1 211357Z 18010KT 17/09 A2975 RMK A01 T01710090  RH  059%=      5-min Rain = 0
KCA1 211358Z 19008KT 17/09 A2975 RMK A01 T01710090  RH  059%=      5-min Rain = 0
KCA1 211359Z 18008KT 17/09 A2975 RMK A01 T01720091  RH  059%=      5-min Rain = 0
KCA1 211400Z 18009KT 17/09 A2975 RMK A01 T01730093  RH  059%=      5-min Rain = 0
KCA1 211401Z 18011KT 17/09 A2975 RMK A01 T01740091  RH  058%=      5-min Rain = 0
KCA1 211402Z 19010KT 18/09 A2975 RMK A01 T01750091  RH  058%=      5-min Rain = 0
KCA1 211403Z 19012KT 18/09 A2975 RMK A01 T01750090  RH  057%=      5-min Rain = 0
KCA1 211404Z 18011KT 18/09 A2975 RMK A01 T01750090  RH  057%=      5-min Rain = 0
KCA1 211405Z 18012KT 18/09 A2975 RMK A01 T01750090  RH  057%=      5-min Rain = 0
KCA1 211406Z 18011KT 18/09 A2974 RMK A01 T01760090  RH  057%=      5-min Rain = 0
KCA1 211407Z 18009KT 18/09 A2974 RMK A01 T01760089  RH  057%=      5-min Rain = 0
KCA1 211408Z 19010KT 18/09 A2974 RMK A01 T01760090  RH  057%=      5-min Rain = 0
KCA1 211409Z 19011KT 18/09 A2974 RMK A01 T01770090  RH  057%=      5-min Rain = 0
KCA1 211410Z 19011KT 18/09 A2974 RMK A01 T01770090  RH  056%=      5-min Rain = 0
KCA1 211411Z 20012KT 18/09 A2974 RMK A01 T01780090  RH  056%=      5-min Rain = 0
KCA1 211412Z 19010KT 18/09 A2974 RMK A01 T01780090  RH  056%=      5-min Rain = 0
KCA1 211413Z 20011KT 18/09 A2974 RMK A01 T01790089  RH  056%=      5-min Rain = 0
KCA1 211414Z 19011KT 18/09 A2974 RMK A01 T01790090  RH  056%=      5-min Rain = 0
KCA1 211415Z 18012KT 18/09 A2974 RMK A01 T01800090  RH  055%=      5-min Rain = 0
KCA1 211416Z 19012KT 18/09 A2974 RMK A01 T01810089  RH  055%=      5-min Rain = 0
KCA1 211417Z 19009KT 18/09 A2974 RMK A01 T01810089  RH  055%=      5-min Rain = 0
KCA1 211418Z 19010KT 18/09 A2974 RMK A01 T01820091  RH  055%=      5-min Rain = 0
KCA1 211419Z 19009KT 18/09 A2974 RMK A01 T01830091  RH  055%=      5-min Rain = 0
KCA1 211420Z 19010KT 18/09 A2974 RMK A01 T01830091  RH  055%=      5-min Rain = 0
KCA1 211421Z 18010KT 18/09 A2974 RMK A01 T01840090  RH  054%=      5-min Rain = 0
KCA1 211422Z 18011KT 19/09 A2974 RMK A01 T01850090  RH  054%=      5-min Rain = 0
KCA1 211423Z 18010KT 19/09 A2974 RMK A01 T01860090  RH  054%=      5-min Rain = 0
KCA1 211424Z 18010KT 19/09 A2974 RMK A01 T01860091  RH  054%=      5-min Rain = 0
KCA1 211425Z 18010KT 19/09 A2974 RMK A01 T01870091  RH  053%=      5-min Rain = 0
KCA1 211426Z 18009KT 19/09 A2974 RMK A01 T01880090  RH  053%=      5-min Rain = 0
KCA1 211427Z 18011KT 19/09 A2974 RMK A01 T01900092  RH  053%=      5-min Rain = 0
KCA1 211428Z 18010KT 19/09 A2974 RMK A01 T01910092  RH  053%=      5-min Rain = 0
KCA1 211429Z 18011KT 19/09 A2974 RMK A01 T01910092  RH  053%=      5-min Rain = 0
KCA1 211430Z 18010KT 19/09 A2974 RMK A01 T01910093  RH  053%=      5-min Rain = 0
KCA1 211431Z 20010KT 19/09 A2974 RMK A01 T01920093  RH  053%=      5-min Rain = 0
KCA1 211432Z 21009KT 19/09 A2974 RMK A01 T01920092  RH  052%=      5-min Rain = 0
KCA1 211433Z 20009KT 19/09 A2974 RMK A01 T01920092  RH  052%=      5-min Rain = 0
KCA1 211434Z 21009KT 19/09 A2974 RMK A01 T01920093  RH  052%=      5-min Rain = 0
KCA1 211435Z 22009KT 19/09 A2974 RMK A01 T01940092  RH  052%=      5-min Rain = 0
KCA1 211436Z 19009KT 20/09 A2974 RMK A01 T01950092  RH  051%=      5-min Rain = 0
KCA1 211437Z 19010KT 20/09 A2974 RMK A01 T01960093  RH  051%=      5-min Rain = 0
KCA1 211438Z 19010KT 20/09 A2974 RMK A01 T01970093  RH  051%=      5-min Rain = 0
KCA1 211439Z 18009KT 20/09 A2974 RMK A01 T01980094  RH  051%=      5-min Rain = 0
KCA1 211440Z 19010KT 20/09 A2974 RMK A01 T01990092  RH  050%=      5-min Rain = 0
KCA1 211441Z 20010KT 20/09 A2974 RMK A01 T01990091  RH  049%=      5-min Rain = 0
KCA1 211442Z 20008KT 20/09 A2974 RMK A01 T02000091  RH  050%=      5-min Rain = 0
KCA1 211443Z 21008KT 20/09 A2974 RMK A01 T02000093  RH  050%=      5-min Rain = 0
KCA1 211444Z 21009KT 20/09 A2974 RMK A01 T02000093  RH  050%=      5-min Rain = 0
KCA1 211445Z 20009KT 20/09 A2974 RMK A01 T02010091  RH  049%=      5-min Rain = 0
KCA1 211446Z 19008KT 20/09 A2974 RMK A01 T02010091  RH  049%=      5-min Rain = 0
KCA1 211447Z 18010KT 20/09 A2974 RMK A01 T02020094  RH  050%=      5-min Rain = 0
KCA1 211448Z 19012KT 20/09 A2974 RMK A01 T02040091  RH  048%=      5-min Rain = 0
KCA1 211449Z 20012KT 21/09 A2974 RMK A01 T02050090  RH  048%=      5-min Rain = 0
KCA1 211450Z 21010KT 21/09 A2974 RMK A01 T02050089  RH  047%=      5-min Rain = 0
KCA1 211451Z 21009KT 21/09 A2974 RMK A01 T02050089  RH  047%=      5-min Rain = 0
KCA1 211452Z 21009KT 21/09 A2974 RMK A01 T02060090  RH  047%=      5-min Rain = 0
KCA1 211453Z 20011KT 21/09 A2974 RMK A01 T02070090  RH  047%=      5-min Rain = 0
KCA1 211454Z 20010KT 21/09 A2974 RMK A01 T02070088  RH  046%=      5-min Rain = 0
KCA1 211455Z 20010KT 21/09 A2974 RMK A01 T02070089  RH  046%=      5-min Rain = 0
KCA1 211456Z 21010KT 21/09 A2974 RMK A01 T02070090  RH  047%=      5-min Rain = 0
KCA1 211457Z 20008KT 21/09 A2974 RMK A01 T02080089  RH  046%=      5-min Rain = 0
KCA1 211458Z 21007KT 21/09 A2974 RMK A01 T02070089  RH  047%=      5-min Rain = 0
KCA1 211459Z 19009KT 21/09 A2974 RMK A01 T02080093  RH  047%=      5-min Rain = 0
KCA1 211500Z 21007KT 21/09 A2974 RMK A01 T02110092  RH  046%=      5-min Rain = 0
KCA1 211501Z 19008G13KT 21/09 A2974 RMK A01 T02110091  RH  046%=      5-min Rain = 0
KCA1 211502Z 19008KT 21/09 A2974 RMK A01 T02120091  RH  046%=      5-min Rain = 0
KCA1 211503Z 19008KT 21/09 A2974 RMK A01 T02130092  RH  046%=      5-min Rain = 0
KCA1 211504Z 19008KT 22/09 A2974 RMK A01 T02150094  RH  046%=      5-min Rain = 0
KCA1 211505Z 18010KT 22/09 A2974 RMK A01 T02170094  RH  045%=      5-min Rain = 0
KCA1 211506Z 19009KT 22/09 A2974 RMK A01 T02180093  RH  045%=      5-min Rain = 0
KCA1 211507Z 19006KT 22/09 A2974 RMK A01 T02170093  RH  045%=      5-min Rain = 0
KCA1 211508Z 19009KT 22/10 A2974 RMK A01 T02170096  RH  046%=      5-min Rain = 0
KCA1 211509Z 20009KT 22/09 A2974 RMK A01 T02190093  RH  045%=      5-min Rain = 0
KCA1 211510Z 20009KT 22/09 A2974 RMK A01 T02190094  RH  045%=      5-min Rain = 0
KCA1 211511Z 20009KT 22/09 A2974 RMK A01 T02210092  RH  044%=      5-min Rain = 0
KCA1 211512Z 20009KT 22/09 A2974 RMK A01 T02210091  RH  043%=      5-min Rain = 0
KCA1 211513Z 20007KT 22/09 A2974 RMK A01 T02210092  RH  044%=      5-min Rain = 0
KCA1 211514Z 19010KT 22/09 A2974 RMK A01 T02220094  RH  044%=      5-min Rain = 0
KCA1 211515Z 18006KT 22/09 A2974 RMK A01 T02240090  RH  042%=      5-min Rain = 0
KCA1 211516Z 19009KT 22/09 A2974 RMK A01 T02240090  RH  042%=      5-min Rain = 0
KCA1 211517Z 19009KT 22/09 A2974 RMK A01 T02240089  RH  042%=      5-min Rain = 0
KCA1 211518Z 18008KT 22/09 A2974 RMK A01 T02240088  RH  042%=      5-min Rain = 0
KCA1 211519Z 19006KT 22/09 A2974 RMK A01 T02240092  RH  043%=      5-min Rain = 0
KCA1 211520Z 19010KT 23/10 A2974 RMK A01 T02270095  RH  043%=      5-min Rain = 0
KCA1 211521Z 18009KT 23/09 A2974 RMK A01 T02290092  RH  041%=      5-min Rain = 0
KCA1 211522Z 18008KT 23/09 A2974 RMK A01 T02300093  RH  042%=      5-min Rain = 0
KCA1 211523Z 19009KT 23/09 A2974 RMK A01 T02300092  RH  041%=      5-min Rain = 0
KCA1 211524Z 19008KT 23/09 A2974 RMK A01 T02310092  RH  041%=      5-min Rain = 0
KCA1 211525Z 18008KT 23/09 A2974 RMK A01 T02310090  RH  041%=      5-min Rain = 0
KCA1 211526Z 19010KT 23/09 A2974 RMK A01 T02310092  RH  041%=      5-min Rain = 0
KCA1 211527Z 19012KT 23/09 A2974 RMK A01 T02320091  RH  040%=      5-min Rain = 0
KCA1 211528Z 19009KT 23/09 A2974 RMK A01 T02320090  RH  040%=      5-min Rain = 0
KCA1 211529Z 19006KT 23/09 A2974 RMK A01 T02290088  RH  041%=      5-min Rain = 0
KCA1 211530Z 19007KT 23/09 A2974 RMK A01 T02290091  RH  041%=      5-min Rain = 0
KCA1 211531Z 20008KT 23/09 A2974 RMK A01 T02300092  RH  041%=      5-min Rain = 0
KCA1 211532Z 19009KT 23/09 A2974 RMK A01 T02340094  RH  041%=      5-min Rain = 0
KCA1 211533Z 19012KT 24/09 A2974 RMK A01 T02370093  RH  040%=      5-min Rain = 0
KCA1 211534Z 19008KT 24/09 A2974 RMK A01 T02380091  RH  039%=      5-min Rain = 0
KCA1 211535Z 20009KT 24/09 A2974 RMK A01 T02380091  RH  039%=      5-min Rain = 0
KCA1 211536Z 20010KT 24/09 A2974 RMK A01 T02380089  RH  039%=      5-min Rain = 0
KCA1 211537Z 19008KT 24/09 A2974 RMK A01 T02390091  RH  039%=      5-min Rain = 0
KCA1 211538Z 19009KT 24/09 A2974 RMK A01 T02400092  RH  039%=      5-min Rain = 0
KCA1 211539Z 21009KT 24/09 A2974 RMK A01 T02410089  RH  038%=      5-min Rain = 0
KCA1 211540Z 21007KT 24/09 A2974 RMK A01 T02420089  RH  038%=      5-min Rain = 0
KCA1 211541Z 18009KT 24/09 A2974 RMK A01 T02420092  RH  039%=      5-min Rain = 0
KCA1 211542Z 16009KT 24/09 A2974 RMK A01 T02410094  RH  039%=      5-min Rain = 0
KCA1 211543Z 16010KT 24/10 A2974 RMK A01 T02430095  RH  039%=      5-min Rain = 0
KCA1 211544Z 16010KT 25/09 A2974 RMK A01 T02450093  RH  038%=      5-min Rain = 0
KCA1 211545Z 19011KT 25/09 A2974 RMK A01 T02460093  RH  038%=      5-min Rain = 0
KCA1 211546Z 18010KT 25/09 A2974 RMK A01 T02450090  RH  037%=      5-min Rain = 0
KCA1 211547Z 18010KT 24/09 A2974 RMK A01 T02430092  RH  038%=      5-min Rain = 0
KCA1 211548Z 19009KT 24/09 A2974 RMK A01 T02420093  RH  039%=      5-min Rain = 0
KCA1 211549Z 18010KT 24/10 A2974 RMK A01 T02430095  RH  039%=      5-min Rain = 0
KCA1 211550Z 21009KT 24/09 A2974 RMK A01 T02440091  RH  038%=      5-min Rain = 0
KCA1 211551Z 20009KT 25/09 A2974 RMK A01 T02450087  RH  037%=      5-min Rain = 0
KCA1 211552Z 20009KT 25/09 A2974 RMK A01 T02450087  RH  037%=      5-min Rain = 0
KCA1 211553Z 20007KT 25/09 A2974 RMK A01 T02480088  RH  036%=      5-min Rain = 0
KCA1 211554Z 21008KT 25/09 A2974 RMK A01 T02490091  RH  037%=      5-min Rain = 0
KCA1 211555Z 20008KT 25/09 A2974 RMK A01 T02500091  RH  036%=      5-min Rain = 0
KCA1 211556Z 18008KT 25/09 A2974 RMK A01 T02510092  RH  036%=      5-min Rain = 0
KCA1 211557Z 17006KT 25/09 A2974 RMK A01 T02500090  RH  036%=      5-min Rain = 0
KCA1 211558Z 19008KT 25/09 A2974 RMK A01 T02490092  RH  037%=      5-min Rain = 0
KCA1 211559Z 19008KT 25/09 A2974 RMK A01 T02510094  RH  037%=      5-min Rain = 0
KCA1 211600Z 20008KT 26/09 A2974 RMK A01 T02550093  RH  036%=      5-min Rain = 0
KCA1 211601Z 19009KT 26/09 A2974 RMK A01 T02550090  RH  035%=      5-min Rain = 0
KCA1 211602Z 18007KT 25/09 A2974 RMK A01 T02530088  RH  035%=      5-min Rain = 0
KCA1 211603Z 18005KT 25/09 A2974 RMK A01 T02530091  RH  036%=      5-min Rain = 0
KCA1 211604Z 20006G11KT 25/09 A2974 RMK A01 T02540092  RH  036%=      5-min Rain = 0
KCA1 211605Z 20008KT 26/09 A2974 RMK A01 T02550091  RH  035%=      5-min Rain = 0
KCA1 211606Z 21007KT 25/09 A2974 RMK A01 T02540089  RH  035%=      5-min Rain = 0
KCA1 211607Z 19007KT 25/09 A2974 RMK A01 T02520091  RH  036%=      5-min Rain = 0
KCA1 211608Z 17007KT 25/09 A2974 RMK A01 T02530093  RH  036%=      5-min Rain = 0
KCA1 211609Z 18008KT 26/10 A2974 RMK A01 T02570097  RH  036%=      5-min Rain = 0
KCA1 211610Z 18010KT 26/10 A2974 RMK A01 T02620097  RH  035%=      5-min Rain = 0
KCA1 211611Z 18009KT 26/09 A2974 RMK A01 T02630092  RH  034%=      5-min Rain = 0
KCA1 211612Z 17009KT 26/09 A2974 RMK A01 T02630094  RH  034%=      5-min Rain = 0
KCA1 211613Z 18007KT 26/09 A2974 RMK A01 T02640092  RH  034%=      5-min Rain = 0
KCA1 211614Z 17010KT 26/09 A2974 RMK A01 T02640094  RH  034%=      5-min Rain = 0
KCA1 211615Z 18010KT 27/09 A2974 RMK A01 T02650093  RH  034%=      5-min Rain = 0
KCA1 211616Z 19010KT 26/09 A2974 RMK A01 T02640092  RH  034%=      5-min Rain = 0
KCA1 211617Z 18011KT 26/09 A2974 RMK A01 T02640093  RH  034%=      5-min Rain = 0
KCA1 211618Z 18010KT 26/09 A2974 RMK A01 T02640093  RH  034%=      5-min Rain = 0
KCA1 211619Z 19009KT 26/09 A2974 RMK A01 T02640091  RH  034%=      5-min Rain = 0
KCA1 211620Z 20008KT 26/09 A2974 RMK A01 T02630089  RH  033%=      5-min Rain = 0
KCA1 211621Z 20008KT 26/09 A2974 RMK A01 T02620091  RH  034%=      5-min Rain = 0
KCA1 211622Z 18009KT 26/09 A2974 RMK A01 T02620094  RH  034%=      5-min Rain = 0
KCA1 211623Z 20006KT 27/09 A2974 RMK A01 T02660093  RH  034%=      5-min Rain = 0
KCA1 211624Z 16006KT 27/10 A2974 RMK A01 T02660099  RH  035%=      5-min Rain = 0
KCA1 211625Z 17009KT 27/10 A2974 RMK A01 T02700099  RH  034%=      5-min Rain = 0
KCA1 211626Z 18008KT 27/10 A2974 RMK A01 T02720096  RH  033%=      5-min Rain = 0
KCA1 211627Z 18009KT 27/10 A2974 RMK A01 T02720097  RH  033%=      5-min Rain = 0
KCA1 211628Z 19011KT 27/10 A2974 RMK A01 T02730097  RH  033%=      5-min Rain = 0
KCA1 211629Z 20010KT 27/09 A2974 RMK A01 T02740091  RH  032%=      5-min Rain = 0
KCA1 211630Z 20007KT 27/09 A2974 RMK A01 T02710088  RH  031%=      5-min Rain = 0
KCA1 211631Z 20007KT 27/09 A2974 RMK A01 T02680087  RH  032%=      5-min Rain = 0
KCA1 211632Z 19009KT 27/09 A2974 RMK A01 T02670091  RH  033%=      5-min Rain = 0
KCA1 211633Z 20007KT 27/09 A2974 RMK A01 T02710092  RH  033%=      5-min Rain = 0
KCA1 211634Z 18007KT 27/09 A2974 RMK A01 T02730094  RH  033%=      5-min Rain = 0
KCA1 211635Z 19010KT 27/09 A2974 RMK A01 T02740092  RH  032%=      5-min Rain = 0
KCA1 211636Z 18009KT 27/10 A2974 RMK A01 T02740097  RH  033%=      5-min Rain = 0
KCA1 211637Z 17008KT 28/10 A2974 RMK A01 T02760103  RH  034%=      5-min Rain = 0
KCA1 211638Z 17009KT 28/10 A2974 RMK A01 T02790102  RH  033%=      5-min Rain = 0
KCA1 211639Z 17009KT 28/10 A2974 RMK A01 T02800097  RH  032%=      5-min Rain = 0
KCA1 211640Z 17007KT 28/10 A2974 RMK A01 T02790098  RH  032%=      5-min Rain = 0
KCA1 211641Z 17006KT 28/10 A2974 RMK A01 T02810099  RH  032%=      5-min Rain = 0
KCA1 211642Z 15003KT 28/10 A2974 RMK A01 T02810101  RH  032%=      5-min Rain = 0
KCA1 211643Z 17006KT 28/10 A2974 RMK A01 T02830101  RH  032%=      5-min Rain = 0
KCA1 211644Z 18009KT 28/10 A2974 RMK A01 T02840097  RH  031%=      5-min Rain = 0
KCA1 211645Z 19008KT 29/09 A2974 RMK A01 T02850093  RH  030%=      5-min Rain = 0
KCA1 211646Z 21009KT 28/09 A2974 RMK A01 T02840093  RH  030%=      5-min Rain = 0
KCA1 211647Z 20011KT 28/10 A2974 RMK A01 T02830095  RH  031%=      5-min Rain = 0
KCA1 211648Z 19009KT 28/09 A2974 RMK A01 T02830093  RH  031%=      5-min Rain = 0
KCA1 211649Z 21006KT 28/10 A2974 RMK A01 T02820095  RH  031%=      5-min Rain = 0
KCA1 211650Z 18007KT 28/10 A2974 RMK A01 T02820097  RH  031%=      5-min Rain = 0
KCA1 211651Z 19009KT 28/09 A2974 RMK A01 T02840094  RH  030%=      5-min Rain = 0
KCA1 211652Z 20010KT 29/10 A2974 RMK A01 T02870097  RH  031%=      5-min Rain = 0
KCA1 211653Z 19007KT 29/09 A2974 RMK A01 T02890092  RH  029%=      5-min Rain = 0
KCA1 211654Z 18010KT 29/09 A2974 RMK A01 T02880090  RH  029%=      5-min Rain = 0
KCA1 211655Z 18008KT 29/08 A2974 RMK A01 T02870084  RH  028%=      5-min Rain = 0
KCA1 211656Z 19007KT 29/09 A2974 RMK A01 T02860088  RH  029%=      5-min Rain = 0
KCA1 211657Z 20007KT 29/09 A2974 RMK A01 T02870085  RH  028%=      5-min Rain = 0
KCA1 211658Z 18008KT 29/09 A2974 RMK A01 T02850087  RH  029%=      5-min Rain = 0
KCA1 211659Z 19010KT 29/09 A2974 RMK A01 T02860093  RH  030%=      5-min Rain = 0
KCA1 211700Z 19011KT 29/09 A2974 RMK A01 T02880089  RH  029%=      5-min Rain = 0
KCA1 211701Z 20009KT 29/09 A2974 RMK A01 T02880089  RH  029%=      5-min Rain = 0
KCA1 211702Z 20008KT 29/08 A2974 RMK A01 T02860084  RH  028%=      5-min Rain = 0
KCA1 211703Z 20007KT 29/09 A2974 RMK A01 T02860087  RH  029%=      5-min Rain = 0
KCA1 211704Z 21010KT 29/09 A2974 RMK A01 T02890088  RH  028%=      5-min Rain = 0
KCA1 211705Z 21009KT 29/08 A2974 RMK A01 T02920083  RH  027%=      5-min Rain = 0
KCA1 211706Z 19012KT 29/09 A2974 RMK A01 T02930086  RH  027%=      5-min Rain = 0
KCA1 211707Z 18012KT 29/09 A2974 RMK A01 T02940086  RH  027%=      5-min Rain = 0
KCA1 211708Z 18009KT 30/09 A2974 RMK A01 T02950086  RH  027%=      5-min Rain = 0
KCA1 211709Z 17007KT 30/09 A2974 RMK A01 T02950086  RH  027%=      5-min Rain = 0
KCA1 211710Z 17009KT 30/09 A2974 RMK A01 T02970090  RH  028%=      5-min Rain = 0
KCA1 211711Z 17008KT 30/09 A2974 RMK A01 T02980085  RH  026%=      5-min Rain = 0
KCA1 211712Z 18008KT 30/09 A2974 RMK A01 T02960087  RH  027%=      5-min Rain = 0
KCA1 211713Z 18011KT 30/09 A2974 RMK A01 T02970086  RH  027%=      5-min Rain = 0
KCA1 211714Z 18007KT 30/08 A2974 RMK A01 T02960082  RH  026%=      5-min Rain = 0
KCA1 211715Z 17008KT 30/09 A2974 RMK A01 T02950085  RH  027%=      5-min Rain = 0
KCA1 211716Z 15006KT 30/08 A2973 RMK A01 T02950081  RH  026%=      5-min Rain = 0
KCA1 211717Z 18010KT 30/09 A2973 RMK A01 T02960085  RH  027%=      5-min Rain = 0
KCA1 211718Z 19010KT 30/09 A2973 RMK A01 T02980085  RH  026%=      5-min Rain = 0
KCA1 211719Z 19009KT 30/09 A2973 RMK A01 T02990088  RH  027%=      5-min Rain = 0
KCA1 211720Z 17009KT 30/09 A2973 RMK A01 T03000091  RH  027%=      5-min Rain = 0
KCA1 211721Z 17012KT 30/09 A2973 RMK A01 T03010091  RH  027%=      5-min Rain = 0
KCA1 211722Z 17010KT 30/09 A2973 RMK A01 T03020094  RH  027%=      5-min Rain = 0
KCA1 211723Z 17011KT 30/10 A2973 RMK A01 T03010095  RH  028%=      5-min Rain = 0
KCA1 211724Z 19011KT 30/10 A2973 RMK A01 T03010096  RH  028%=      5-min Rain = 0
KCA1 211725Z 19011KT 30/10 A2973 RMK A01 T03020100  RH  029%=      5-min Rain = 0
KCA1 211726Z 20009KT 30/09 A2973 RMK A01 T03040093  RH  027%=      5-min Rain = 0
KCA1 211727Z 19011KT 30/09 A2973 RMK A01 T03040087  RH  026%=      5-min Rain = 0
KCA1 211728Z 20009KT 31/09 A2973 RMK A01 T03050085  RH  025%=      5-min Rain = 0
KCA1 211729Z 20011KT 31/09 A2973 RMK A01 T03070086  RH  025%=      5-min Rain = 0
KCA1 211730Z 19014KT 31/08 A2973 RMK A01 T03070082  RH  025%=      5-min Rain = 0
KCA1 211731Z 18012KT 31/08 A2973 RMK A01 T03060078  RH  024%=      5-min Rain = 0
KCA1 211732Z 19013KT 31/08 A2973 RMK A01 T03050084  RH  025%=      5-min Rain = 0
KCA1 211733Z 18010KT 30/09 A2973 RMK A01 T03040086  RH  026%=      5-min Rain = 0
KCA1 211734Z 18010G16KT 30/09 A2973 RMK A01 T03040088  RH  026%=      5-min Rain = 0
KCA1 211735Z 18011KT 31/09 A2973 RMK A01 T03050086  RH  026%=      5-min Rain = 0
KCA1 211736Z 18012KT 30/09 A2973 RMK A01 T03040086  RH  026%=      5-min Rain = 0
KCA1 211737Z 20011KT 31/08 A2973 RMK A01 T03050082  RH  025%=      5-min Rain = 0
KCA1 211738Z 18011KT 31/09 A2973 RMK A01 T03060085  RH  025%=      5-min Rain = 0
KCA1 211739Z 19010KT 31/09 A2973 RMK A01 T03080090  RH  026%=      5-min Rain = 0
KCA1 211740Z 17008KT 31/09 A2973 RMK A01 T03090093  RH  026%=      5-min Rain = 0
KCA1 211741Z 18010KT 31/09 A2973 RMK A01 T03090094  RH  026%=      5-min Rain = 0
KCA1 211742Z 18012KT 31/09 A2973 RMK A01 T03100093  RH  026%=      5-min Rain = 0
KCA1 211743Z 18014KT 31/09 A2973 RMK A01 T03080089  RH  026%=      5-min Rain = 0
KCA1 211744Z 18012KT 31/09 A2973 RMK A01 T03060088  RH  026%=      5-min Rain = 0
KCA1 211745Z 18013KT 31/09 A2972 RMK A01 T03060089  RH  026%=      5-min Rain = 0
KCA1 211746Z 19011KT 31/09 A2972 RMK A01 T03070088  RH  026%=      5-min Rain = 0
KCA1 211747Z 18011KT 31/09 A2972 RMK A01 T03090089  RH  026%=      5-min Rain = 0
KCA1 211748Z 18015KT 31/09 A2972 RMK A01 T03090088  RH  025%=      5-min Rain = 0
KCA1 211749Z 19012KT 31/09 A2973 RMK A01 T03080088  RH  026%=      5-min Rain = 0
KCA1 211750Z 19011KT 31/09 A2973 RMK A01 T03050090  RH  026%=      5-min Rain = 0
KCA1 211751Z 20009KT 31/10 A2973 RMK A01 T03060095  RH  027%=      5-min Rain = 0
KCA1 211752Z 16012G18KT 31/10 A2973 RMK A01 T03080098  RH  027%=      5-min Rain = 0
KCA1 211753Z 18012KT 31/10 A2973 RMK A01 T03100102  RH  028%=      5-min Rain = 0
KCA1 211754Z 20011KT 31/10 A2973 RMK A01 T03120102  RH  027%=      5-min Rain = 0
KCA1 211755Z 18013KT 31/10 A2972 RMK A01 T03120101  RH  027%=      5-min Rain = 0
KCA1 211756Z 18010KT 31/10 A2972 RMK A01 T03090099  RH  027%=      5-min Rain = 0
KCA1 211757Z 17009KT 31/10 A2972 RMK A01 T03060101  RH  028%=      5-min Rain = 0
KCA1 211758Z 16011KT 31/11 A2972 RMK A01 T03050105  RH  029%=      5-min Rain = 0
KCA1 211759Z 17012KT 31/11 A2972 RMK A01 T03080108  RH  029%=      5-min Rain = 0
KCA1 211800Z 16014KT 31/11 A2972 RMK A01 T03090106  RH  029%=      5-min Rain = 0
KCA1 211801Z 15015KT 31/11 A2972 RMK A01 T03090111  RH  029%=      5-min Rain = 0
KCA1 211802Z 15015KT 31/11 A2972 RMK A01 T03080108  RH  029%=      5-min Rain = 0
KCA1 211803Z 17014KT 31/11 A2972 RMK A01 T03060108  RH  029%=      5-min Rain = 0
KCA1 211804Z 17012G19KT 30/11 A2972 RMK A01 T03040106  RH  029%=      5-min Rain = 0
KCA1 211805Z 16015KT 30/11 A2972 RMK A01 T03040110  RH  030%=      5-min Rain = 0
KCA1 211806Z 16015KT 31/11 A2972 RMK A01 T03060109  RH  030%=      5-min Rain = 0
KCA1 211807Z 17016KT 31/11 A2972 RMK A01 T03070108  RH  029%=      5-min Rain = 0
KCA1 211808Z 16017KT 31/11 A2972 RMK A01 T03070109  RH  029%=      5-min Rain = 0
KCA1 211809Z 16016KT 31/11 A2972 RMK A01 T03080107  RH  029%=      5-min Rain = 0
KCA1 211810Z 15014KT 31/11 A2972 RMK A01 T03090107  RH  029%=      5-min Rain = 0
KCA1 211811Z 17013KT 31/11 A2972 RMK A01 T03090108  RH  029%=      5-min Rain = 0
KCA1 211812Z 16015KT 31/11 A2972 RMK A01 T03100108  RH  029%=      5-min Rain = 0
KCA1 211813Z 16015KT 31/11 A2972 RMK A01 T03130105  RH  028%=      5-min Rain = 0
KCA1 211814Z 15015KT 31/11 A2972 RMK A01 T03130106  RH  028%=      5-min Rain = 0
KCA1 211815Z 16011G17KT 31/11 A2972 RMK A01 T03130109  RH  029%=      5-min Rain = 0
KCA1 211816Z 17015KT 32/10 A2972 RMK A01 T03160104  RH  027%=      5-min Rain = 0
KCA1 211817Z 18014KT 32/09 A2972 RMK A01 T03170094  RH  025%=      5-min Rain = 0
KCA1 211818Z 19014KT 32/09 A2972 RMK A01 T03150094  RH  026%=      5-min Rain = 0
KCA1 211819Z 19011KT 32/09 A2972 RMK A01 T03150089  RH  025%=      5-min Rain = 0
KCA1 211820Z 17014KT 32/10 A2972 RMK A01 T03170099  RH  026%=      5-min Rain = 0
KCA1 211821Z 17014KT 32/09 A2972 RMK A01 T03190093  RH  025%=      5-min Rain = 0
KCA1 211822Z 17013KT 32/08 A2971 RMK A01 T03190083  RH  023%=      5-min Rain = 0
KCA1 211823Z 18011KT 32/08 A2972 RMK A01 T03190080  RH  023%=      5-min Rain = 0
KCA1 211824Z 18009KT 32/09 A2972 RMK A01 T03180085  RH  024%=      5-min Rain = 0
KCA1 211825Z 20009KT 32/09 A2972 RMK A01 T03190090  RH  024%=      5-min Rain = 0
KCA1 211826Z 20008KT 32/09 A2972 RMK A01 T03190093  RH  025%=      5-min Rain = 0
KCA1 211827Z 22011KT 32/10 A2972 RMK A01 T03210098  RH  025%=      5-min Rain = 0
KCA1 211828Z 22012KT 32/10 A2972 RMK A01 T03240097  RH  025%=      5-min Rain = 0
KCA1 211829Z 21010KT 32/09 A2972 RMK A01 T03220093  RH  024%=      5-min Rain = 0
KCA1 211830Z 20011KT 32/10 A2972 RMK A01 T03220101  RH  026%=      5-min Rain = 0
KCA1 211831Z 22009KT 33/07 A2972 RMK A01 T03270066  RH  020%=      5-min Rain = 0
KCA1 211832Z 20013KT 33/07 A2972 RMK A01 T03280069  RH  020%=      5-min Rain = 0
KCA1 211833Z 19013KT 33/05 A2972 RMK A01 T03250054  RH  018%=      5-min Rain = 0
KCA1 211834Z 18009KT 32/02 A2972 RMK A01 T03220022  RH  015%=      5-min Rain = 0
KCA1 211835Z 18007KT 32/04 A2972 RMK A01 T03200039  RH  017%=      5-min Rain = 0
KCA1 211836Z 18005KT 32/07 A2972 RMK A01 T03200069  RH  021%=      5-min Rain = 0
KCA1 211837Z 25010KT 32/06 A2971 RMK A01 T03200056  RH  019%=      5-min Rain = 0
KCA1 211838Z 22014G19KT 32/06 A2971 RMK A01 T03230063  RH  020%=      5-min Rain = 0
KCA1 211839Z 20013KT 32/09 A2971 RMK A01 T03240092  RH  024%=      5-min Rain = 0
KCA1 211840Z 20009KT 32/10 A2971 RMK A01 T03240095  RH  024%=      5-min Rain = 0
KCA1 211841Z 21015G20KT 33/09 A2971 RMK A01 T03260093  RH  024%=      5-min Rain = 0
KCA1 211842Z 20016G21KT 33/09 A2971 RMK A01 T03250085  RH  023%=      5-min Rain = 0
KCA1 211843Z 21012KT 32/09 A2971 RMK A01 T03220085  RH  023%=      5-min Rain = 0
KCA1 211844Z 20010KT 32/08 A2971 RMK A01 T03190084  RH  023%=      5-min Rain = 0
KCA1 211845Z 22012KT 32/09 A2971 RMK A01 T03190086  RH  024%=      5-min Rain = 0
KCA1 211846Z 20010KT 32/09 A2971 RMK A01 T03210091  RH  024%=      5-min Rain = 0
KCA1 211847Z 20012KT 32/09 A2971 RMK A01 T03240087  RH  023%=      5-min Rain = 0
KCA1 211848Z 20011KT 33/08 A2971 RMK A01 T03250080  RH  022%=      5-min Rain = 0
KCA1 211849Z 19012KT 33/08 A2971 RMK A01 T03250075  RH  021%=      5-min Rain = 0
KCA1 211850Z 18014KT 33/09 A2971 RMK A01 T03260093  RH  024%=      5-min Rain = 0
KCA1 211851Z 17016KT 33/10 A2971 RMK A01 T03270100  RH  025%=      5-min Rain = 0
KCA1 211852Z 16013KT 33/10 A2971 RMK A01 T03280101  RH  025%=      5-min Rain = 0
KCA1 211853Z 16019KT 33/10 A2971 RMK A01 T03280095  RH  024%=      5-min Rain = 0
KCA1 211854Z 18019G24KT 33/09 A297 RMK A01 T03270090  RH  023%=      5-min Rain = 0
KCA1 211855Z 18018KT 33/08 A2971 RMK A01 T03260082  RH  022%=      5-min Rain = 0
KCA1 211856Z 18016KT 32/08 A2971 RMK A01 T03230075  RH  021%=      5-min Rain = 0
KCA1 211857Z 20013G18KT 32/08 A2971 RMK A01 T03200078  RH  022%=      5-min Rain = 0
KCA1 211858Z 18016G21KT 32/08 A2971 RMK A01 T03200078  RH  022%=      5-min Rain = 0
KCA1 211859Z 18020KT 32/07 A297 RMK A01 T03230072  RH  021%=      5-min Rain = 0
KCA1 211900Z 18018KT 32/08 A297 RMK A01 T03220075  RH  021%=      5-min Rain = 0
KCA1 211901Z 17017KT 32/07 A297 RMK A01 T03240074  RH  021%=      5-min Rain = 0
KCA1 211902Z 18017KT 32/07 A2971 RMK A01 T03240071  RH  021%=      5-min Rain = 0
KCA1 211903Z 19016KT 32/07 A2971 RMK A01 T03240070  RH  021%=      5-min Rain = 0
KCA1 211904Z 19015KT 33/07 A2971 RMK A01 T03250071  RH  021%=      5-min Rain = 0
KCA1 211905Z 18013KT 33/08 A2971 RMK A01 T03280082  RH  022%=      5-min Rain = 0
KCA1 211906Z 17017G22KT 33/07 A2971 RMK A01 T03320070  RH  020%=      5-min Rain = 0
KCA1 211907Z 17012KT 33/07 A2971 RMK A01 T03300066  RH  019%=      5-min Rain = 0
KCA1 211908Z 17015KT 33/07 A2971 RMK A01 T03290065  RH  019%=      5-min Rain = 0
KCA1 211909Z 18016KT 33/07 A2971 RMK A01 T03280069  RH  020%=      5-min Rain = 0
KCA1 211910Z 18018G24KT 33/07 A2971 RMK A01 T03280074  RH  021%=      5-min Rain = 0
KCA1 211911Z 17015KT 32/06 A2971 RMK A01 T03240062  RH  020%=      5-min Rain = 0
KCA1 211912Z 18014KT 32/06 A2971 RMK A01 T03230059  RH  019%=      5-min Rain = 0
KCA1 211913Z 20013KT 33/07 A2971 RMK A01 T03250066  RH  020%=      5-min Rain = 0
KCA1 211914Z 18012KT 33/07 A2971 RMK A01 T03250074  RH  021%=      5-min Rain = 0
KCA1 211915Z 18014KT 32/07 A2971 RMK A01 T03240072  RH  021%=      5-min Rain = 0
KCA1 211916Z 17012KT 33/07 A2971 RMK A01 T03250073  RH  021%=      5-min Rain = 0
KCA1 211917Z 17015G20KT 33/08 A2971 RMK A01 T03300081  RH  022%=      5-min Rain = 0
KCA1 211918Z 17015KT 33/07 A2971 RMK A01 T03320074  RH  020%=      5-min Rain = 0
KCA1 211919Z 17014KT 33/08 A2971 RMK A01 T03300077  RH  021%=      5-min Rain = 0
KCA1 211920Z 17013G18KT 33/08 A2971 RMK A01 T03300082  RH  022%=      5-min Rain = 0
KCA1 211921Z 16017G22KT 33/08 A2971 RMK A01 T03300084  RH  022%=      5-min Rain = 0
KCA1 211922Z 17014KT 33/08 A2971 RMK A01 T03290078  RH  021%=      5-min Rain = 0
KCA1 211923Z 17012KT 33/08 A2971 RMK A01 T03270082  RH  022%=      5-min Rain = 0
KCA1 211924Z 16016KT 33/09 A2971 RMK A01 T03280091  RH  023%=      5-min Rain = 0
KCA1 211925Z 18015KT 33/09 A2971 RMK A01 T03280093  RH  023%=      5-min Rain = 0
KCA1 211926Z 17018KT 33/09 A2971 RMK A01 T03250086  RH  023%=      5-min Rain = 0
KCA1 211927Z 17018KT 32/08 A2971 RMK A01 T03240082  RH  022%=      5-min Rain = 0
KCA1 211928Z 18017KT 32/08 A2971 RMK A01 T03240080  RH  022%=      5-min Rain = 0
KCA1 211929Z 16018G23KT 32/08 A2971 RMK A01 T03230082  RH  023%=      5-min Rain = 0
KCA1 211930Z 16018KT 32/08 A297 RMK A01 T03230080  RH  022%=      5-min Rain = 0
KCA1 211931Z 17013KT 32/08 A2971 RMK A01 T03240082  RH  022%=      5-min Rain = 0
KCA1 211932Z 17018G28KT 33/09 A297 RMK A01 T03270088  RH  023%=      5-min Rain = 0
KCA1 211933Z 16019KT 33/07 A297 RMK A01 T03280074  RH  021%=      5-min Rain = 0
KCA1 211934Z 16018KT 33/09 A297 RMK A01 T03250086  RH  023%=      5-min Rain = 0
KCA1 211935Z 17019KT 32/09 A2971 RMK A01 T03240085  RH  023%=      5-min Rain = 0
KCA1 211936Z 17013G19KT 32/08 A2971 RMK A01 T03240077  RH  022%=      5-min Rain = 0
KCA1 211937Z 16017KT 32/09 A2971 RMK A01 T03230093  RH  024%=      5-min Rain = 0
KCA1 211938Z 17019KT 32/09 A297 RMK A01 T03240093  RH  024%=      5-min Rain = 0
KCA1 211939Z 16017KT 32/08 A2971 RMK A01 T03230084  RH  023%=      5-min Rain = 0
KCA1 211940Z 17013KT 32/09 A2971 RMK A01 T03210089  RH  024%=      5-min Rain = 0
KCA1 211941Z 18015KT 32/10 A2971 RMK A01 T03210098  RH  025%=      5-min Rain = 0
KCA1 211942Z 17015KT 32/10 A2971 RMK A01 T03230102  RH  026%=      5-min Rain = 0
KCA1 211943Z 17019KT 33/10 A2971 RMK A01 T03270099  RH  025%=      5-min Rain = 0
KCA1 211944Z 19016KT 33/10 A2971 RMK A01 T03260100  RH  025%=      5-min Rain = 0
KCA1 211945Z 18014G21KT 33/10 A2971 RMK A01 T03250102  RH  025%=      5-min Rain = 0
KCA1 211946Z 17018G23KT 32/10 A2971 RMK A01 T03240097  RH  025%=      5-min Rain = 0
KCA1 211947Z 18015G20KT 32/09 A2971 RMK A01 T03160094  RH  025%=      5-min Rain = 0
KCA1 211948Z 18017G22KT 31/10 A2971 RMK A01 T03130097  RH  026%=      5-min Rain = 0
KCA1 211949Z 17014KT 31/10 A2971 RMK A01 T03140098  RH  026%=      5-min Rain = 0
KCA1 211950Z 18012KT 32/10 A2971 RMK A01 T03160102  RH  027%=      5-min Rain = 0
KCA1 211951Z 17019KT 32/10 A2971 RMK A01 T03200104  RH  026%=      5-min Rain = 0
KCA1 211952Z 17016KT 32/10 A2971 RMK A01 T03190100  RH  026%=      5-min Rain = 0
KCA1 211953Z 17015KT 32/10 A2971 RMK A01 T03160102  RH  027%=      5-min Rain = 0
KCA1 211954Z 16016KT 31/10 A2971 RMK A01 T03140100  RH  027%=      5-min Rain = 0
KCA1 211955Z 17017KT 31/10 A2971 RMK A01 T03110100  RH  027%=      5-min Rain = 0
KCA1 211956Z 15018KT 31/10 A2971 RMK A01 T03100100  RH  027%=      5-min Rain = 0
KCA1 211957Z 15016KT 31/10 A2971 RMK A01 T03100101  RH  027%=      5-min Rain = 0
KCA1 211958Z 16018KT 31/10 A297 RMK A01 T03110103  RH  028%=      5-min Rain = 0
KCA1 211959Z 16014KT 31/11 A2971 RMK A01 T03130106  RH  028%=      5-min Rain = 0
KCA1 212000Z 16015G20KT 32/11 A2971 RMK A01 T03150109  RH  028%=      5-min Rain = 0
KCA1 212001Z 15019KT 32/11 A297 RMK A01 T03180107  RH  027%=      5-min Rain = 0
KCA1 212002Z 16015G21KT 32/11 A297 RMK A01 T03180106  RH  027%=      5-min Rain = 0
KCA1 212003Z 16016G21KT 32/11 A297 RMK A01 T03190111  RH  028%=      5-min Rain = 0
KCA1 212004Z 16015KT 32/11 A297 RMK A01 T03210109  RH  027%=      5-min Rain = 0
KCA1 212005Z 16015KT 32/11 A297 RMK A01 T03230108  RH  027%=      5-min Rain = 0
KCA1 212006Z 16018KT 33/10 A297 RMK A01 T03250102  RH  025%=      5-min Rain = 0
KCA1 212007Z 15020G26KT 32/10 A297 RMK A01 T03220102  RH  026%=      5-min Rain = 0
KCA1 212008Z 16018KT 32/10 A297 RMK A01 T03210103  RH  026%=      5-min Rain = 0
KCA1 212009Z 16018KT 32/10 A297 RMK A01 T03200104  RH  026%=      5-min Rain = 0
KCA1 212010Z 16014KT 32/11 A297 RMK A01 T03200105  RH  027%=      5-min Rain = 0
KCA1 212011Z 15015G22KT 32/11 A2971 RMK A01 T03200109  RH  027%=      5-min Rain = 0
KCA1 212012Z 16017G23KT 32/11 A297 RMK A01 T03220108  RH  027%=      5-min Rain = 0
KCA1 212013Z 17019KT 32/11 A2971 RMK A01 T03230109  RH  027%=      5-min Rain = 0
KCA1 212014Z 17016KT 32/11 A2971 RMK A01 T03210110  RH  027%=      5-min Rain = 0
KCA1 212015Z 17017G22KT 32/11 A2971 RMK A01 T03200112  RH  028%=      5-min Rain = 0
KCA1 212016Z 17018KT 32/11 A2971 RMK A01 T03200110  RH  028%=      5-min Rain = 0
KCA1 212017Z 17015KT 32/11 A2971 RMK A01 T03190109  RH  027%=      5-min Rain = 0
KCA1 212018Z 16014G19KT 32/11 A2971 RMK A01 T03180109  RH  028%=      5-min Rain = 0
KCA1 212019Z 18013KT 32/12 A2971 RMK A01 T03180115  RH  029%=      5-min Rain = 0
KCA1 212020Z 18013KT 32/12 A2971 RMK A01 T03200118  RH  029%=      5-min Rain = 0
KCA1 212021Z 18020KT 32/12 A2971 RMK A01 T03220115  RH  028%=      5-min Rain = 0
KCA1 212022Z 18020G25KT 32/11 A2971 RMK A01 T03180113  RH  028%=      5-min Rain = 0
KCA1 212023Z 17014G19KT 32/11 A2971 RMK A01 T03170111  RH  028%=      5-min Rain = 0
KCA1 212024Z 21013KT 32/08 A2971 RMK A01 T03180078  RH  023%=      5-min Rain = 0
KCA1 212025Z 22011KT 32/02 A2971 RMK A01 T03230017  RH  014%=      5-min Rain = 0
KCA1 212026Z 21013KT 33/01 A2971 RMK A01 T03260011  RH  013%=      5-min Rain = 0
KCA1 212027Z 20014KT 33/00 A297 RMK A01 T03270002  RH  013%=      5-min Rain = 0
KCA1 212028Z 20014KT 33/01 A297 RMK A01 T03280006  RH  013%=      5-min Rain = 0
KCA1 212029Z 20020KT 33/01 A297 RMK A01 T03310006  RH  013%=      5-min Rain = 0
KCA1 212030Z 21018KT 33/M00 A297 RMK A01 T03311001  RH  012%=      5-min Rain = 0
KCA1 212031Z 21017KT 33/00 A2971 RMK A01 T03300002  RH  012%=      5-min Rain = 0
KCA1 212032Z 20020KT 33/00 A297 RMK A01 T03300002  RH  012%=      5-min Rain = 0
KCA1 212033Z 21017KT 33/00 A2971 RMK A01 T03300004  RH  012%=      5-min Rain = 0
KCA1 212034Z 22020KT 33/00 A2971 RMK A01 T03290001  RH  012%=      5-min Rain = 0
KCA1 212035Z 22011G16KT 33/00 A2971 RMK A01 T03270002  RH  013%=      5-min Rain = 0
KCA1 212036Z 23015G26KT 33/01 A297 RMK A01 T03290008  RH  013%=      5-min Rain = 0
KCA1 212037Z 22019KT 33/01 A297 RMK A01 T03320012  RH  013%=      5-min Rain = 0
KCA1 212038Z 22020KT 33/00 A297 RMK A01 T03340004  RH  012%=      5-min Rain = 0
KCA1 212039Z 23017KT 33/00 A297 RMK A01 T03310003  RH  012%=      5-min Rain = 0
KCA1 212040Z 23018G27KT 33/01 A297 RMK A01 T03310007  RH  013%=      5-min Rain = 0
KCA1 212041Z 23021KT 33/00 A297 RMK A01 T03310004  RH  012%=      5-min Rain = 0
KCA1 212042Z 22019G24KT 33/M00 A297 RMK A01 T03301003  RH  012%=      5-min Rain = 0
KCA1 212043Z 23019KT 33/00 A297 RMK A01 T032800-0  RH  012%=      5-min Rain = 0
KCA1 212044Z 22015KT 33/00 A297 RMK A01 T03280004  RH  013%=      5-min Rain = 0
KCA1 212045Z 21020G25KT 33/01 A297 RMK A01 T03300007  RH  013%=      5-min Rain = 0
KCA1 212046Z 21018KT 33/00 A297 RMK A01 T03310003  RH  012%=      5-min Rain = 0
KCA1 212047Z 21023G29KT 33/00 A297 RMK A01 T03320003  RH  012%=      5-min Rain = 0
KCA1 212048Z 21024G29KT 33/00 A297 RMK A01 T03320001  RH  012%=      5-min Rain = 0
KCA1 212049Z 21019G25KT 33/M00 A297 RMK A01 T03301001  RH  012%=      5-min Rain = 0
KCA1 212050Z 21021KT 33/00 A297 RMK A01 T03280000  RH  012%=      5-min Rain = 0
KCA1 212051Z 22022KT 33/00 A297 RMK A01 T03270001  RH  012%=      5-min Rain = 0
KCA1 212052Z 21019KT 33/00 A297 RMK A01 T03260001  RH  013%=      5-min Rain = 0
KCA1 212053Z 22019G25KT 33/00 A297 RMK A01 T03260004  RH  013%=      5-min Rain = 0
KCA1 212054Z 24014G19KT 33/01 A297 RMK A01 T03280011  RH  013%=      5-min Rain = 0
KCA1 212055Z 24014G20KT 33/02 A2969 RMK A01 T03310015  RH  013%=      5-min Rain = 0
KCA1 212056Z 24021G26KT 33/02 A2969 RMK A01 T03330015  RH  013%=      5-min Rain = 0
KCA1 212057Z 23021G27KT 33/01 A2969 RMK A01 T03330010  RH  013%=      5-min Rain = 0
KCA1 212058Z 22021G27KT 33/01 A2969 RMK A01 T03330012  RH  013%=      5-min Rain = 0
KCA1 212059Z 23020KT 33/01 A2969 RMK A01 T03330011  RH  013%=      5-min Rain = 0
KCA1 212100Z 23020KT 33/01 A2969 RMK A01 T03320009  RH  013%=      5-min Rain = 0
KCA1 212101Z 22015KT 33/01 A297 RMK A01 T03300008  RH  013%=      5-min Rain = 0
KCA1 212102Z 21015KT 33/01 A297 RMK A01 T03310012  RH  013%=      5-min Rain = 0
KCA1 212103Z 22016G22KT 33/02 A2969 RMK A01 T03330017  RH  013%=      5-min Rain = 0
KCA1 212104Z 21018KT 33/01 A2969 RMK A01 T03330006  RH  012%=      5-min Rain = 0
KCA1 212105Z 22022G28KT 33/01 A2969 RMK A01 T03310011  RH  013%=      5-min Rain = 0
KCA1 212106Z 22022KT 33/01 A2969 RMK A01 T03300008  RH  013%=      5-min Rain = 0
KCA1 212107Z 21017KT 33/01 A2969 RMK A01 T03290006  RH  013%=      5-min Rain = 0
KCA1 212108Z 20020KT 33/01 A2969 RMK A01 T03280010  RH  013%=      5-min Rain = 0
KCA1 212109Z 20021G28KT 33/01 A2969 RMK A01 T03280011  RH  013%=      5-min Rain = 0
KCA1 212110Z 21024KT 33/01 A2969 RMK A01 T03290007  RH  013%=      5-min Rain = 0
KCA1 212111Z 21018G23KT 33/00 A2969 RMK A01 T03270003  RH  013%=      5-min Rain = 0
KCA1 212112Z 21017G23KT 33/01 A2969 RMK A01 T03280014  RH  014%=      5-min Rain = 0
KCA1 212113Z 21024KT 33/01 A2969 RMK A01 T03300008  RH  013%=      5-min Rain = 0
KCA1 212114Z 21021KT 33/01 A2969 RMK A01 T03290007  RH  013%=      5-min Rain = 0
KCA1 212115Z 22019G27KT 33/01 A2969 RMK A01 T03280008  RH  013%=      5-min Rain = 0
KCA1 212116Z 23019G24KT 33/01 A2969 RMK A01 T03290010  RH  013%=      5-min Rain = 0
KCA1 212117Z 23020G26KT 33/01 A2969 RMK A01 T03290010  RH  013%=      5-min Rain = 0
KCA1 212118Z 23022KT 33/01 A2969 RMK A01 T03290011  RH  013%=      5-min Rain = 0
KCA1 212119Z 22019KT 33/01 A2969 RMK A01 T03280006  RH  013%=      5-min Rain = 0
KCA1 212120Z 21021KT 33/01 A2969 RMK A01 T03260007  RH  013%=      5-min Rain = 0
KCA1 212121Z 21020G27KT 33/01 A2969 RMK A01 T03250009  RH  013%=      5-min Rain = 0
KCA1 212122Z 22023KT 33/01 A2969 RMK A01 T03260008  RH  013%=      5-min Rain = 0
KCA1 212123Z 21026KT 33/01 A2969 RMK A01 T03260005  RH  013%=      5-min Rain = 0
KCA1 212124Z 21024KT 33/01 A2969 RMK A01 T03260005  RH  013%=      5-min Rain = 0
KCA1 212125Z 23020G32KT 33/01 A2969 RMK A01 T03270010  RH  013%=      5-min Rain = 0
KCA1 212126Z 22025KT 33/01 A2969 RMK A01 T03300006  RH  013%=      5-min Rain = 0
KCA1 212127Z 22024KT 33/00 A2969 RMK A01 T03270002  RH  013%=      5-min Rain = 0
KCA1 212128Z 21024G29KT 33/00 A2969 RMK A01 T03250002  RH  013%=      5-min Rain = 0
KCA1 212129Z 21023KT 32/M00 A2969 RMK A01 T03241001  RH  012%=      5-min Rain = 0
KCA1 212130Z 23017G22KT 32/00 A2969 RMK A01 T03240003  RH  013%=      5-min Rain = 0
KCA1 212131Z 24024G32KT 33/01 A2969 RMK A01 T03260011  RH  013%=      5-min Rain = 0
KCA1 212132Z 24024G31KT 33/01 A2969 RMK A01 T03280007  RH  013%=      5-min Rain = 0
KCA1 212133Z 24022KT 33/01 A2969 RMK A01 T03270010  RH  013%=      5-min Rain = 0
KCA1 212134Z 24022G29KT 33/01 A2969 RMK A01 T03280008  RH  013%=      5-min Rain = 0
KCA1 212135Z 22024KT 33/01 A2969 RMK A01 T03270006  RH  013%=      5-min Rain = 0
KCA1 212136Z 22019G26KT 33/00 A2969 RMK A01 T03250004  RH  013%=      5-min Rain = 0
KCA1 212137Z 21020G27KT 33/01 A2969 RMK A01 T03250011  RH  014%=      5-min Rain = 0
KCA1 212138Z 21024G30KT 33/01 A2969 RMK A01 T03280008  RH  013%=      5-min Rain = 0
KCA1 212139Z 21018KT 33/01 A2969 RMK A01 T03280009  RH  013%=      5-min Rain = 0
KCA1 212140Z 21020KT 33/01 A2969 RMK A01 T03290010  RH  013%=      5-min Rain = 0
KCA1 212141Z 21016KT 33/01 A2969 RMK A01 T03270006  RH  013%=      5-min Rain = 0
KCA1 212142Z 20020KT 33/01 A2969 RMK A01 T03270012  RH  014%=      5-min Rain = 0
KCA1 212143Z 21019KT 33/01 A2969 RMK A01 T03270010  RH  013%=      5-min Rain = 0
KCA1 212144Z 22017KT 33/01 A2969 RMK A01 T03270008  RH  013%=      5-min Rain = 0
KCA1 212145Z 23023G29KT 33/01 A2969 RMK A01 T03260011  RH  013%=      5-min Rain = 0
KCA1 212146Z 24019G25KT 33/01 A2969 RMK A01 T03260011  RH  013%=      5-min Rain = 0
KCA1 212147Z 23025KT 33/01 A2969 RMK A01 T03270010  RH  013%=      5-min Rain = 0
KCA1 212148Z 24020KT 33/01 A2969 RMK A01 T03270007  RH  013%=      5-min Rain = 0
KCA1 212149Z 23021G27KT 33/01 A2969 RMK A01 T03260009  RH  013%=      5-min Rain = 0
KCA1 212150Z 24021G29KT 33/01 A2969 RMK A01 T03260013  RH  014%=      5-min Rain = 0
KCA1 212151Z 23018G24KT 33/01 A2969 RMK A01 T03260006  RH  013%=      5-min Rain = 0
KCA1 212152Z 23018KT 32/01 A2969 RMK A01 T03240010  RH  013%=      5-min Rain = 0
KCA1 212153Z 23015G21KT 33/01 A2969 RMK A01 T03250011  RH  014%=      5-min Rain = 0
KCA1 212154Z 24014KT 33/02 A2969 RMK A01 T03270017  RH  014%=      5-min Rain = 0
KCA1 212155Z 23015KT 33/02 A2969 RMK A01 T03290017  RH  014%=      5-min Rain = 0
KCA1 212156Z 22019G24KT 33/01 A2969 RMK A01 T03290013  RH  013%=      5-min Rain = 0
KCA1 212157Z 22021KT 33/01 A2969 RMK A01 T03290010  RH  013%=      5-min Rain = 0
KCA1 212158Z 21024KT 33/01 A2969 RMK A01 T03280006  RH  013%=      5-min Rain = 0
KCA1 212159Z 21020KT 33/00 A2969 RMK A01 T03250004  RH  013%=      5-min Rain = 0
KCA1 212200Z 20016G21KT 32/01 A2969 RMK A01 T03230010  RH  014%=      5-min Rain = 0
KCA1 212201Z 21019G24KT 33/02 A2969 RMK A01 T03250015  RH  014%=      5-min Rain = 0
KCA1 212202Z 22021KT 33/02 A2969 RMK A01 T03270015  RH  014%=      5-min Rain = 0
KCA1 212203Z 22019KT 33/02 A2969 RMK A01 T03280015  RH  014%=      5-min Rain = 0
KCA1 212204Z 22018KT 33/02 A2969 RMK A01 T03270018  RH  014%=      5-min Rain = 0
KCA1 212205Z 23016KT 33/02 A2969 RMK A01 T03280018  RH  014%=      5-min Rain = 0
KCA1 212206Z 23021KT 33/02 A2969 RMK A01 T03280017  RH  014%=      5-min Rain = 0
KCA1 212207Z 24019KT 33/01 A2969 RMK A01 T03260013  RH  014%=      5-min Rain = 0
KCA1 212208Z 23020KT 33/02 A2969 RMK A01 T03250016  RH  014%=      5-min Rain = 0
KCA1 212209Z 22016G21KT 33/01 A2969 RMK A01 T03250012  RH  014%=      5-min Rain = 0
KCA1 212210Z 22016G21KT 33/02 A2969 RMK A01 T03250017  RH  014%=      5-min Rain = 0
KCA1 212211Z 21025G30KT 33/01 A2968 RMK A01 T03270014  RH  014%=      5-min Rain = 0
KCA1 212212Z 23020G28KT 33/02 A2969 RMK A01 T03270016  RH  014%=      5-min Rain = 0
KCA1 212213Z 23025KT 33/01 A2969 RMK A01 T03270013  RH  014%=      5-min Rain = 0
KCA1 212214Z 21019KT 33/01 A2969 RMK A01 T03260008  RH  013%=      5-min Rain = 0
KCA1 212215Z 23019G25KT 33/01 A2969 RMK A01 T03250011  RH  014%=      5-min Rain = 0
KCA1 212216Z 23019G25KT 33/01 A2969 RMK A01 T03250011  RH  014%=      5-min Rain = 0
KCA1 212217Z 22021G28KT 33/01 A2969 RMK A01 T03250014  RH  014%=      5-min Rain = 0
KCA1 212218Z 22016KT 33/02 A2969 RMK A01 T03250015  RH  014%=      5-min Rain = 0
KCA1 212219Z 21015KT 33/02 A2969 RMK A01 T03270021  RH  014%=      5-min Rain = 0
KCA1 212220Z 22017G22KT 33/02 A2969 RMK A01 T03290019  RH  014%=      5-min Rain = 0
KCA1 212221Z 23018G23KT 33/01 A2969 RMK A01 T03280014  RH  014%=      5-min Rain = 0
KCA1 212222Z 21014KT 33/02 A2969 RMK A01 T03270020  RH  014%=      5-min Rain = 0
KCA1 212223Z 21017KT 33/02 A2969 RMK A01 T03280020  RH  014%=      5-min Rain = 0
KCA1 212224Z 21019KT 33/02 A2969 RMK A01 T03280015  RH  014%=      5-min Rain = 0
KCA1 212225Z 22017KT 33/01 A2969 RMK A01 T03260012  RH  014%=      5-min Rain = 0
KCA1 212226Z 23014KT 33/01 A2969 RMK A01 T03250012  RH  014%=      5-min Rain = 0
KCA1 212227Z 23016G22KT 32/01 A2969 RMK A01 T03240012  RH  014%=      5-min Rain = 0
KCA1 212228Z 23019KT 32/01 A2968 RMK A01 T03240014  RH  014%=      5-min Rain = 0
KCA1 212229Z 23015KT 33/02 A2969 RMK A01 T03250019  RH  014%=      5-min Rain = 0
KCA1 212230Z 22018KT 33/02 A2968 RMK A01 T03270018  RH  014%=      5-min Rain = 0
KCA1 212231Z 23015KT 33/02 A2968 RMK A01 T03270015  RH  014%=      5-min Rain = 0
KCA1 212232Z 23018G23KT 33/02 A2968 RMK A01 T03270022  RH  014%=      5-min Rain = 0
KCA1 212233Z 22018KT 33/02 A2968 RMK A01 T03280016  RH  014%=      5-min Rain = 0
KCA1 212234Z 22019G25KT 33/01 A2968 RMK A01 T03270014  RH  014%=      5-min Rain = 0
KCA1 212235Z 22019G28KT 33/01 A2968 RMK A01 T03270014  RH  014%=      5-min Rain = 0
KCA1 212236Z 22023G28KT 33/01 A2968 RMK A01 T03270012  RH  013%=      5-min Rain = 0
KCA1 212237Z 22020KT 33/01 A2968 RMK A01 T03260009  RH  013%=      5-min Rain = 0
KCA1 212238Z 22016KT 33/01 A2969 RMK A01 T03250012  RH  014%=      5-min Rain = 0
KCA1 212239Z 22020G26KT 33/01 A2968 RMK A01 T03260013  RH  014%=      5-min Rain = 0
KCA1 212240Z 22021G30KT 33/01 A2968 RMK A01 T03260010  RH  013%=      5-min Rain = 0
KCA1 212241Z 22025KT 33/01 A2968 RMK A01 T03260009  RH  013%=      5-min Rain = 0
KCA1 212242Z 22024G29KT 33/01 A2968 RMK A01 T03250007  RH  013%=      5-min Rain = 0
KCA1 212243Z 23022KT 33/01 A2968 RMK A01 T03250007  RH  013%=      5-min Rain = 0
KCA1 212244Z 22019G25KT 33/01 A2968 RMK A01 T03250008  RH  013%=      5-min Rain = 0
KCA1 212245Z 22017G22KT 33/01 A2969 RMK A01 T03260013  RH  014%=      5-min Rain = 0
KCA1 212246Z 21020G26KT 33/01 A2969 RMK A01 T03280012  RH  013%=      5-min Rain = 0
KCA1 212247Z 20021KT 33/01 A2969 RMK A01 T03260006  RH  013%=      5-min Rain = 0
KCA1 212248Z 21019G26KT 33/01 A2969 RMK A01 T03250007  RH  013%=      5-min Rain = 0
KCA1 212249Z 21015G23KT 33/01 A2969 RMK A01 T03250010  RH  013%=      5-min Rain = 0
KCA1 212250Z 21018KT 33/01 A2969 RMK A01 T03260008  RH  013%=      5-min Rain = 0
KCA1 212251Z 21017KT 33/01 A2969 RMK A01 T03260008  RH  013%=      5-min Rain = 0
KCA1 212252Z 21016KT 33/01 A2969 RMK A01 T03260006  RH  013%=      5-min Rain = 0
KCA1 212253Z 21016KT 33/01 A2969 RMK A01 T03270010  RH  013%=      5-min Rain = 0
KCA1 212254Z 21015KT 33/01 A2969 RMK A01 T03270007  RH  013%=      5-min Rain = 0
KCA1 212255Z 21015KT 33/01 A2969 RMK A01 T03270007  RH  013%=      5-min Rain = 0
KCA1 212256Z 20016KT 33/01 A2969 RMK A01 T03270009  RH  013%=      5-min Rain = 0
KCA1 212257Z 20019G26KT 33/01 A2968 RMK A01 T03270009  RH  013%=      5-min Rain = 0
KCA1 212258Z 20020G27KT 33/01 A2969 RMK A01 T03270005  RH  013%=      5-min Rain = 0
KCA1 212259Z 20019G25KT 33/01 A2969 RMK A01 T03270005  RH  013%=      5-min Rain = 0
KCA1 212300Z 21017G22KT 33/01 A2969 RMK A01 T03270005  RH  013%=      5-min Rain = 0
KCA1 212301Z 22012KT 33/01 A2969 RMK A01 T03260007  RH  013%=      5-min Rain = 0
KCA1 212302Z 22017G24KT 33/01 A2969 RMK A01 T03270010  RH  013%=      5-min Rain = 0
KCA1 212303Z 22018G25KT 33/00 A2969 RMK A01 T03270004  RH  013%=      5-min Rain = 0
KCA1 212304Z 22019KT 33/00 A2969 RMK A01 T03260004  RH  013%=      5-min Rain = 0
KCA1 212305Z 22018G25KT 33/00 A2969 RMK A01 T032500-0  RH  012%=      5-min Rain = 0
KCA1 212306Z 23016G23KT 32/00 A2969 RMK A01 T03240004  RH  013%=      5-min Rain = 0
KCA1 212307Z 23019KT 33/00 A2969 RMK A01 T03250001  RH  013%=      5-min Rain = 0
KCA1 212308Z 22019KT 32/M00 A2969 RMK A01 T03241001  RH  012%=      5-min Rain = 0
KCA1 212309Z 23016KT 32/M00 A2969 RMK A01 T03231002  RH  012%=      5-min Rain = 0
KCA1 212310Z 22017G25KT 32/00 A2969 RMK A01 T03230002  RH  013%=      5-min Rain = 0
KCA1 212311Z 21017KT 32/00 A2969 RMK A01 T03230003  RH  013%=      5-min Rain = 0
KCA1 212312Z 22018KT 32/00 A2969 RMK A01 T03240003  RH  013%=      5-min Rain = 0
KCA1 212313Z 22020G25KT 32/M00 A2969 RMK A01 T03241001  RH  012%=      5-min Rain = 0
KCA1 212314Z 23020KT 32/00 A2969 RMK A01 T03240000  RH  013%=      5-min Rain = 0
KCA1 212315Z 23018KT 32/M00 A2969 RMK A01 T03231001  RH  013%=      5-min Rain = 0
KCA1 212316Z 23019KT 32/00 A2969 RMK A01 T032200-0  RH  013%=      5-min Rain = 0
KCA1 212317Z 23017G23KT 32/M00 A2969 RMK A01 T03221002  RH  013%=      5-min Rain = 0
KCA1 212318Z 23018KT 32/00 A2969 RMK A01 T03210000  RH  013%=      5-min Rain = 0
KCA1 212319Z 23019KT 32/M00 A2969 RMK A01 T03211001  RH  013%=      5-min Rain = 0
KCA1 212320Z 22016KT 32/00 A2969 RMK A01 T032200-0  RH  013%=      5-min Rain = 0
KCA1 212321Z 22013KT 32/00 A2969 RMK A01 T03220003  RH  013%=      5-min Rain = 0
KCA1 212322Z 23016G23KT 32/00 A2969 RMK A01 T03230004  RH  013%=      5-min Rain = 0
KCA1 212323Z 23016G21KT 32/00 A2969 RMK A01 T03240003  RH  013%=      5-min Rain = 0
KCA1 212324Z 22014G19KT 32/01 A2969 RMK A01 T03240006  RH  013%=      5-min Rain = 0
KCA1 212325Z 23018KT 32/00 A2969 RMK A01 T03240004  RH  013%=      5-min Rain = 0
KCA1 212326Z 23015KT 32/00 A2969 RMK A01 T03240001  RH  013%=      5-min Rain = 0
KCA1 212327Z 24018KT 32/00 A2969 RMK A01 T03230002  RH  013%=      5-min Rain = 0
KCA1 212328Z 23016KT 32/00 A2969 RMK A01 T03220001  RH  013%=      5-min Rain = 0
KCA1 212329Z 24015KT 32/00 A2969 RMK A01 T03210002  RH  013%=      5-min Rain = 0
KCA1 212330Z 23014KT 32/00 A2969 RMK A01 T03210002  RH  013%=      5-min Rain = 0
KCA1 212331Z 23015KT 32/00 A2969 RMK A01 T03210003  RH  013%=      5-min Rain = 0
KCA1 212332Z 23015KT 32/01 A2969 RMK A01 T03210006  RH  013%=      5-min Rain = 0
KCA1 212333Z 22019G24KT 32/00 A2969 RMK A01 T03200001  RH  013%=      5-min Rain = 0
KCA1 212334Z 23016KT 32/00 A2969 RMK A01 T032000-0  RH  013%=      5-min Rain = 0
KCA1 212335Z 23019G24KT 32/M00 A2969 RMK A01 T03201001  RH  013%=      5-min Rain = 0
KCA1 212336Z 22016KT 32/M00 A2969 RMK A01 T03191003  RH  013%=      5-min Rain = 0
KCA1 212337Z 22015KT 32/00 A2969 RMK A01 T03190000  RH  013%=      5-min Rain = 0
KCA1 212338Z 23017G24KT 32/00 A2969 RMK A01 T03190001  RH  013%=      5-min Rain = 0
KCA1 212339Z 23016G21KT 32/00 A2969 RMK A01 T03190001  RH  013%=      5-min Rain = 0
KCA1 212340Z 23016KT 32/00 A2969 RMK A01 T03190002  RH  013%=      5-min Rain = 0
KCA1 212341Z 23014KT 32/00 A2969 RMK A01 T03180004  RH  013%=      5-min Rain = 0
KCA1 212342Z 22014KT 32/00 A2969 RMK A01 T03180004  RH  013%=      5-min Rain = 0
KCA1 212343Z 22018KT 32/00 A2969 RMK A01 T03180000  RH  013%=      5-min Rain = 0
KCA1 212344Z 22016KT 32/00 A2969 RMK A01 T03180000  RH  013%=      5-min Rain = 0
KCA1 212345Z 21019KT 32/M00 A2969 RMK A01 T03181002  RH  013%=      5-min Rain = 0
KCA1 212346Z 21017KT 32/M00 A2969 RMK A01 T03161004  RH  013%=      5-min Rain = 0
KCA1 212347Z 22016KT 32/M00 A2969 RMK A01 T03161003  RH  013%=      5-min Rain = 0
KCA1 212348Z 22015KT 32/00 A2969 RMK A01 T031600-0  RH  013%=      5-min Rain = 0
KCA1 212349Z 21020KT 32/M00 A2969 RMK A01 T03161001  RH  013%=      5-min Rain = 0
KCA1 212350Z 21020G26KT 32/M00 A2969 RMK A01 T03161003  RH  013%=      5-min Rain = 0
KCA1 212351Z 21019KT 32/M00 A2969 RMK A01 T03151003  RH  013%=      5-min Rain = 0
KCA1 212352Z 22015G20KT 32/00 A2969 RMK A01 T03150000  RH  013%=      5-min Rain = 0
KCA1 212353Z 22015KT 32/01 A2969 RMK A01 T03150006  RH  014%=      5-min Rain = 0
KCA1 212354Z 22018KT 32/00 A2969 RMK A01 T03150004  RH  014%=      5-min Rain = 0
KCA1 212355Z 23018KT 32/00 A2969 RMK A01 T03150002  RH  013%=      5-min Rain = 0
KCA1 212356Z 22017KT 31/00 A2969 RMK A01 T03140001  RH  013%=      5-min Rain = 0
KCA1 212357Z 22015KT 31/00 A2969 RMK A01 T03140003  RH  014%=      5-min Rain = 0
KCA1 212358Z 23010KT 31/01 A297 RMK A01 T03130007  RH  014%=      5-min Rain = 0
KCA1 212359Z 23009KT 31/01 A297 RMK A01 T03140014  RH  015%=      5-min Rain = 0
KCA1 220000Z 22012KT 31/02 A297 RMK A01 T03140015  RH  015%=      5-min Rain = 0
KCA1 220001Z 23016KT 31/01 A2969 RMK A01 T03140012  RH  014%=      5-min Rain = 0
KCA1 220002Z 23013KT 31/01 A297 RMK A01 T03140010  RH  014%=      5-min Rain = 0
KCA1 220003Z 23016G22KT 31/01 A297 RMK A01 T03140011  RH  014%=      5-min Rain = 0
KCA1 220004Z 23018KT 31/01 A2969 RMK A01 T03130005  RH  014%=      5-min Rain = 0
KCA1 220005Z 23016KT 31/00 A2969 RMK A01 T03120004  RH  014%=      5-min Rain = 0
KCA1 220006Z 23017KT 31/01 A297 RMK A01 T03120005  RH  014%=      5-min Rain = 0
KCA1 220007Z 23016KT 31/01 A297 RMK A01 T03120005  RH  014%=      5-min Rain = 0
KCA1 220008Z 24017G24KT 31/00 A297 RMK A01 T03110003  RH  014%=      5-min Rain = 0
KCA1 220009Z 24021KT 31/M00 A297 RMK A01 T03111001  RH  013%=      5-min Rain = 0
KCA1 220010Z 23018KT 31/M00 A297 RMK A01 T03101001  RH  013%=      5-min Rain = 0
KCA1 220011Z 24016G21KT 31/00 A297 RMK A01 T03100001  RH  014%=      5-min Rain = 0
KCA1 220012Z 24014G19KT 31/00 A297 RMK A01 T030900-0  RH  014%=      5-min Rain = 0
KCA1 220013Z 24019KT 31/00 A297 RMK A01 T03080001  RH  014%=      5-min Rain = 0
KCA1 220014Z 23018KT 31/M00 A297 RMK A01 T03081003  RH  013%=      5-min Rain = 0
KCA1 220015Z 23015KT 31/M00 A297 RMK A01 T03071002  RH  014%=      5-min Rain = 0
KCA1 220016Z 24012KT 31/M00 A297 RMK A01 T03071001  RH  014%=      5-min Rain = 0
KCA1 220017Z 23016G24KT 31/M00 A297 RMK A01 T03071002  RH  014%=      5-min Rain = 0
KCA1 220018Z 24018KT 31/M00 A297 RMK A01 T03061003  RH  014%=      5-min Rain = 0
KCA1 220019Z 24020KT 31/M01 A297 RMK A01 T03061010  RH  013%=      5-min Rain = 0
KCA1 220020Z 24017G22KT 31/M01 A297 RMK A01 T03061010  RH  013%=      5-min Rain = 0
KCA1 220021Z 24014KT 31/M01 A297 RMK A01 T03051008  RH  013%=      5-min Rain = 0
KCA1 220022Z 24014G19KT 30/M01 A297 RMK A01 T03041006  RH  013%=      5-min Rain = 0
KCA1 220023Z 23012KT 30/M01 A297 RMK A01 T03041005  RH  014%=      5-min Rain = 0
KCA1 220024Z 23013KT 30/M00 A297 RMK A01 T03031002  RH  014%=      5-min Rain = 0
KCA1 220025Z 23012G17KT 30/M00 A297 RMK A01 T03031004  RH  014%=      5-min Rain = 0
KCA1 220026Z 23013KT 30/M00 A297 RMK A01 T03021003  RH  014%=      5-min Rain = 0
KCA1 220027Z 23013KT 30/M01 A297 RMK A01 T03021006  RH  014%=      5-min Rain = 0
KCA1 220028Z 24016KT 30/M01 A297 RMK A01 T03021006  RH  014%=      5-min Rain = 0
KCA1 220029Z 23014KT 30/M01 A297 RMK A01 T03011007  RH  014%=      5-min Rain = 0
KCA1 220030Z 23014KT 30/M01 A297 RMK A01 T03011007  RH  014%=      5-min Rain = 0
KCA1 220031Z 23015KT 30/M01 A297 RMK A01 T03001007  RH  014%=      5-min Rain = 0
KCA1 220032Z 24015KT 30/M01 A297 RMK A01 T03001008  RH  014%=      5-min Rain = 0
KCA1 220033Z 23014KT 30/M01 A2971 RMK A01 T03001008  RH  014%=      5-min Rain = 0
KCA1 220034Z 24012KT 30/M01 A2971 RMK A01 T03001006  RH  014%=      5-min Rain = 0
KCA1 220035Z 23013KT 30/M01 A2971 RMK A01 T02991006  RH  014%=      5-min Rain = 0
KCA1 220036Z 23014KT 30/M01 A2971 RMK A01 T02981009  RH  014%=      5-min Rain = 0
KCA1 220037Z 23014KT 30/M01 A2971 RMK A01 T02981008  RH  014%=      5-min Rain = 0
KCA1 220038Z 23015KT 30/M01 A2971 RMK A01 T02981009  RH  014%=      5-min Rain = 0
KCA1 220039Z 23014KT 30/M01 A2971 RMK A01 T02971010  RH  014%=      5-min Rain = 0
KCA1 220040Z 23013KT 30/M01 A2971 RMK A01 T02961009  RH  014%=      5-min Rain = 0
KCA1 220041Z 23014KT 30/M01 A2971 RMK A01 T02961009  RH  014%=      5-min Rain = 0
KCA1 220042Z 23015KT 30/M01 A2971 RMK A01 T02961011  RH  014%=      5-min Rain = 0
KCA1 220043Z 23013KT 30/M01 A2971 RMK A01 T02951010  RH  014%=      5-min Rain = 0
KCA1 220044Z 23012KT 29/M01 A2971 RMK A01 T02941008  RH  014%=      5-min Rain = 0
KCA1 220045Z 23012KT 29/M01 A2971 RMK A01 T02941007  RH  014%=      5-min Rain = 0
KCA1 220046Z 23013KT 29/M01 A2971 RMK A01 T02931008  RH  014%=      5-min Rain = 0
KCA1 220047Z 23012KT 29/M01 A2971 RMK A01 T02921009  RH  014%=      5-min Rain = 0
KCA1 220048Z 22014KT 29/M01 A2971 RMK A01 T02921008  RH  014%=      5-min Rain = 0
KCA1 220049Z 22011KT 29/M01 A2971 RMK A01 T02911009  RH  014%=      5-min Rain = 0
KCA1 220050Z 23013KT 29/M01 A2971 RMK A01 T02901010  RH  014%=      5-min Rain = 0
KCA1 220051Z 23013KT 29/M01 A2971 RMK A01 T02901010  RH  014%=      5-min Rain = 0
KCA1 220052Z 22012KT 29/M01 A2971 RMK A01 T02901010  RH  014%=      5-min Rain = 0
KCA1 220053Z 23014KT 29/M01 A2971 RMK A01 T02901010  RH  014%=      5-min Rain = 0
KCA1 220054Z 22011KT 29/M01 A2971 RMK A01 T02891011  RH  014%=      5-min Rain = 0
KCA1 220055Z 23012KT 29/M01 A2972 RMK A01 T02891009  RH  014%=      5-min Rain = 0
KCA1 220056Z 22012KT 29/M01 A2972 RMK A01 T02881010  RH  014%=      5-min Rain = 0
KCA1 220057Z 22012KT 29/M01 A2972 RMK A01 T02881010  RH  014%=      5-min Rain = 0
KCA1 220058Z 22011KT 29/M01 A2972 RMK A01 T02871009  RH  015%=      5-min Rain = 0
KCA1 220059Z 22012KT 29/M01 A2972 RMK A01 T02861009  RH  015%=      5-min Rain = 0
KCA1 220100Z 22011KT 29/M01 A2972 RMK A01 T02851009  RH  015%=      5-min Rain = 0
KCA1 220101Z 22011KT 28/M01 A2972 RMK A01 T02841010  RH  015%=      5-min Rain = 0
KCA1 220102Z 22010KT 28/M01 A2972 RMK A01 T02841008  RH  015%=      5-min Rain = 0
KCA1 220103Z 22011KT 28/M01 A2972 RMK A01 T02821009  RH  015%=      5-min Rain = 0
KCA1 220104Z 22010KT 28/M01 A2972 RMK A01 T02811009  RH  015%=      5-min Rain = 0
KCA1 220105Z 22011KT 28/M01 A2972 RMK A01 T02801008  RH  015%=      5-min Rain = 0
KCA1 220106Z 22011KT 28/M01 A2972 RMK A01 T02791009  RH  015%=      5-min Rain = 0
KCA1 220107Z 22010KT 28/M01 A2972 RMK A01 T02791009  RH  015%=      5-min Rain = 0
KCA1 220108Z 22011KT 28/M01 A2972 RMK A01 T02781009  RH  015%=      5-min Rain = 0
KCA1 220109Z 22011KT 28/M01 A2972 RMK A01 T02781009  RH  015%=      5-min Rain = 0
KCA1 220110Z 22011KT 28/M01 A2972 RMK A01 T02771009  RH  015%=      5-min Rain = 0
KCA1 220111Z 22011KT 28/M01 A2972 RMK A01 T02761010  RH  015%=      5-min Rain = 0
KCA1 220112Z 22011KT 28/M01 A2972 RMK A01 T02761010  RH  015%=      5-min Rain = 0
KCA1 220113Z 22010KT 28/M01 A2972 RMK A01 T02761010  RH  015%=      5-min Rain = 0
KCA1 220114Z 21011KT 28/M01 A2972 RMK A01 T02751010  RH  016%=      5-min Rain = 0
KCA1 220115Z 22011KT 27/M01 A2972 RMK A01 T02741010  RH  016%=      5-min Rain = 0
KCA1 220116Z 21011KT 27/M01 A2972 RMK A01 T02731011  RH  016%=      5-min Rain = 0
KCA1 220117Z 21011KT 27/M01 A2972 RMK A01 T02731011  RH  016%=      5-min Rain = 0
KCA1 220118Z 21011KT 27/M01 A2972 RMK A01 T02721011  RH  016%=      5-min Rain = 0
KCA1 220119Z 21010KT 27/M01 A2972 RMK A01 T02711011  RH  016%=      5-min Rain = 0
KCA1 220120Z 21010KT 27/M01 A2972 RMK A01 T02711011  RH  016%=      5-min Rain = 0
KCA1 220121Z 21010KT 27/M01 A2972 RMK A01 T02701011  RH  016%=      5-min Rain = 0
KCA1 220122Z 21010KT 27/M01 A2972 RMK A01 T02691011  RH  016%=      5-min Rain = 0
KCA1 220123Z 21009KT 27/M01 A2972 RMK A01 T02691011  RH  016%=      5-min Rain = 0
KCA1 220124Z 21008KT 27/M01 A2972 RMK A01 T02681010  RH  016%=      5-min Rain = 0
KCA1 220125Z 21008KT 27/M01 A2972 RMK A01 T02661010  RH  016%=      5-min Rain = 0
KCA1 220126Z 21008KT 26/M01 A2972 RMK A01 T02641010  RH  017%=      5-min Rain = 0
KCA1 220127Z 20007KT 26/M01 A2973 RMK A01 T02621009  RH  017%=      5-min Rain = 0
KCA1 220128Z 20008KT 26/M01 A2973 RMK A01 T02601009  RH  017%=      5-min Rain = 0
KCA1 220129Z 20008KT 26/M01 A2973 RMK A01 T02591008  RH  017%=      5-min Rain = 0
KCA1 220130Z 20008KT 26/M01 A2973 RMK A01 T02581008  RH  017%=      5-min Rain = 0
KCA1 220131Z 20008KT 26/M01 A2973 RMK A01 T02571009  RH  017%=      5-min Rain = 0
KCA1 220132Z 20008KT 26/M01 A2973 RMK A01 T02561010  RH  017%=      5-min Rain = 0
KCA1 220133Z 20008KT 26/M01 A2973 RMK A01 T02551010  RH  017%=      5-min Rain = 0
KCA1 220134Z 20008KT 25/M01 A2973 RMK A01 T02541010  RH  017%=      5-min Rain = 0
KCA1 220135Z 20008KT 25/M01 A2973 RMK A01 T02531011  RH  017%=      5-min Rain = 0
KCA1 220136Z 20008KT 25/M01 A2973 RMK A01 T02521012  RH  017%=      5-min Rain = 0
KCA1 220137Z 20008KT 25/M01 A2973 RMK A01 T02521011  RH  018%=      5-min Rain = 0
KCA1 220138Z 20008KT 25/M01 A2973 RMK A01 T02521012  RH  018%=      5-min Rain = 0
KCA1 220139Z 20009KT 25/M01 A2973 RMK A01 T02521011  RH  018%=      5-min Rain = 0
KCA1 220140Z 20007KT 25/M01 A2973 RMK A01 T02511011  RH  018%=      5-min Rain = 0
KCA1 220141Z 20007KT 25/M01 A2973 RMK A01 T02491011  RH  018%=      5-min Rain = 0
KCA1 220142Z 20007KT 25/M01 A2973 RMK A01 T02481011  RH  018%=      5-min Rain = 0
KCA1 220143Z 20008KT 25/M01 A2973 RMK A01 T02471011  RH  018%=      5-min Rain = 0
KCA1 220144Z 20007KT 25/M01 A2973 RMK A01 T02471011  RH  018%=      5-min Rain = 0
KCA1 220145Z 19007KT 25/M01 A2973 RMK A01 T02461011  RH  018%=      5-min Rain = 0
KCA1 220146Z 19008KT 25/M01 A2974 RMK A01 T02451011  RH  018%=      5-min Rain = 0
KCA1 220147Z 19007KT 24/M01 A2974 RMK A01 T02441011  RH  018%=      5-min Rain = 0
KCA1 220148Z 18007KT 24/M01 A2974 RMK A01 T02431011  RH  019%=      5-min Rain = 0
KCA1 220149Z 18007KT 24/M01 A2974 RMK A01 T02421011  RH  019%=      5-min Rain = 0
KCA1 220150Z 16007KT 24/M01 A2974 RMK A01 T02401013  RH  019%=      5-min Rain = 0
KCA1 220151Z 15007KT 24/M01 A2974 RMK A01 T02381012  RH  019%=      5-min Rain = 0
KCA1 220152Z 15008KT 24/M01 A2974 RMK A01 T02351011  RH  020%=      5-min Rain = 0
KCA1 220153Z 14008KT 23/M01 A2974 RMK A01 T02321010  RH  020%=      5-min Rain = 0
KCA1 220154Z 14008KT 23/M01 A2974 RMK A01 T02301009  RH  020%=      5-min Rain = 0
KCA1 220155Z 14008KT 23/M01 A2974 RMK A01 T02281009  RH  021%=      5-min Rain = 0
KCA1 220156Z 14008KT 23/M01 A2974 RMK A01 T02261009  RH  021%=      5-min Rain = 0
KCA1 220157Z 15009KT 23/M01 A2974 RMK A01 T02251007  RH  021%=      5-min Rain = 0
KCA1 220158Z 14008KT 22/M01 A2974 RMK A01 T02241005  RH  022%=      5-min Rain = 0
KCA1 220159Z 15008KT 22/M00 A2974 RMK A01 T02241002  RH  022%=      5-min Rain = 0
KCA1 220200Z 15008KT 22/00 A2974 RMK A01 T02230002  RH  023%=      5-min Rain = 0
KCA1 220201Z 15008KT 22/00 A2974 RMK A01 T02220004  RH  024%=      5-min Rain = 0
KCA1 220202Z 14008KT 22/01 A2975 RMK A01 T02210008  RH  024%=      5-min Rain = 0
KCA1 220203Z 15008KT 22/01 A2975 RMK A01 T02200011  RH  025%=      5-min Rain = 0
KCA1 220204Z 15009KT 22/02 A2975 RMK A01 T02200015  RH  026%=      5-min Rain = 0
KCA1 220205Z 16009KT 22/02 A2975 RMK A01 T02190020  RH  027%=      5-min Rain = 0
KCA1 220206Z 16008KT 22/03 A2975 RMK A01 T02190025  RH  028%=      5-min Rain = 0
KCA1 220207Z 15008KT 22/03 A2975 RMK A01 T02190030  RH  029%=      5-min Rain = 0
KCA1 220208Z 15008KT 22/03 A2975 RMK A01 T02190034  RH  030%=      5-min Rain = 0
KCA1 220209Z 15008KT 22/04 A2975 RMK A01 T02190040  RH  031%=      5-min Rain = 0
KCA1 220210Z 15007KT 22/05 A2975 RMK A01 T02190045  RH  032%=      5-min Rain = 0
KCA1 220211Z 15008KT 22/06 A2975 RMK A01 T02190055  RH  034%=      5-min Rain = 0
KCA1 220212Z 15008KT 22/06 A2975 RMK A01 T02190060  RH  035%=      5-min Rain = 0
KCA1 220213Z 15008KT 22/07 A2975 RMK A01 T02190068  RH  038%=      5-min Rain = 0
KCA1 220214Z 16007KT 22/07 A2975 RMK A01 T02180074  RH  039%=      5-min Rain = 0
KCA1 220215Z 16008KT 22/08 A2975 RMK A01 T02180077  RH  040%=      5-min Rain = 0
KCA1 220216Z 15008KT 22/08 A2975 RMK A01 T02180082  RH  042%=      5-min Rain = 0
KCA1 220217Z 16007KT 22/09 A2975 RMK A01 T02180086  RH  043%=      5-min Rain = 0
KCA1 220218Z 16007KT 22/09 A2975 RMK A01 T02180088  RH  043%=      5-min Rain = 0
KCA1 220219Z 16007KT 22/09 A2975 RMK A01 T02180094  RH  045%=      5-min Rain = 0
KCA1 220220Z 17007KT 22/10 A2975 RMK A01 T02180098  RH  046%=      5-min Rain = 0
KCA1 220221Z 16006KT 22/10 A2975 RMK A01 T02180104  RH  048%=      5-min Rain = 0
KCA1 220222Z 17004KT 22/10 A2975 RMK A01 T02190103  RH  048%=      5-min Rain = 0
KCA1 220223Z 17005KT 22/10 A2975 RMK A01 T02190104  RH  048%=      5-min Rain = 0
KCA1 220224Z 18007KT 22/11 A2975 RMK A01 T02190109  RH  050%=      5-min Rain = 0
KCA1 220225Z 18007KT 22/11 A2976 RMK A01 T02190110  RH  050%=      5-min Rain = 0
KCA1 220226Z 16007KT 22/11 A2976 RMK A01 T02200112  RH  050%=      5-min Rain = 0
KCA1 220227Z 15009KT 22/12 A2976 RMK A01 T02190117  RH  052%=      5-min Rain = 0
KCA1 220228Z 15009KT 22/12 A2976 RMK A01 T02200124  RH  054%=      5-min Rain = 0
KCA1 220229Z 16008KT 22/13 A2976 RMK A01 T02220127  RH  055%=      5-min Rain = 0
KCA1 220230Z 15009KT 22/13 A2976 RMK A01 T02240128  RH  054%=      5-min Rain = 0
KCA1 220231Z 14010KT 22/13 A2976 RMK A01 T02240129  RH  055%=      5-min Rain = 0
KCA1 220232Z 15011KT 22/13 A2976 RMK A01 T02240129  RH  055%=      5-min Rain = 0
KCA1 220233Z 14011KT 23/13 A2976 RMK A01 T02250131  RH  055%=      5-min Rain = 0
KCA1 220234Z 17007KT 23/13 A2976 RMK A01 T02250130  RH  055%=      5-min Rain = 0
KCA1 220235Z 20008KT 23/13 A2976 RMK A01 T02260130  RH  055%=      5-min Rain = 0
KCA1 220236Z 24005KT 23/13 A2976 RMK A01 T02250129  RH  054%=      5-min Rain = 0
KCA1 220237Z 23005KT 22/12 A2976 RMK A01 T02230122  RH  053%=      5-min Rain = 0
KCA1 220238Z 21004KT 22/12 A2976 RMK A01 T02200119  RH  053%=      5-min Rain = 0
KCA1 220239Z 20004KT 22/12 A2976 RMK A01 T02190118  RH  053%=      5-min Rain = 0
KCA1 220240Z 17004KT 22/12 A2976 RMK A01 T02180118  RH  053%=      5-min Rain = 0
KCA1 220241Z 17005KT 22/12 A2976 RMK A01 T02180119  RH  053%=      5-min Rain = 0
KCA1 220242Z 16005KT 22/12 A2976 RMK A01 T02180122  RH  054%=      5-min Rain = 0
KCA1 220243Z 15006KT 22/12 A2976 RMK A01 T02200123  RH  054%=      5-min Rain = 0
KCA1 220244Z 15004KT 22/13 A2976 RMK A01 T02200125  RH  055%=      5-min Rain = 0
KCA1 220245Z 16006KT 22/13 A2976 RMK A01 T02200126  RH  055%=      5-min Rain = 0
KCA1 220246Z 16009KT 22/13 A2976 RMK A01 T02200129  RH  056%=      5-min Rain = 0
KCA1 220247Z 17008KT 22/13 A2977 RMK A01 T02200132  RH  057%=      5-min Rain = 0
KCA1 220248Z 16007KT 22/13 A2977 RMK A01 T02200132  RH  057%=      5-min Rain = 0
KCA1 220249Z 17008KT 22/13 A2977 RMK A01 T02210133  RH  057%=      5-min Rain = 0
KCA1 220250Z 17008KT 22/13 A2977 RMK A01 T02210133  RH  057%=      5-min Rain = 0
KCA1 220251Z 17009KT 22/13 A2977 RMK A01 T02210134  RH  058%=      5-min Rain = 0
KCA1 220252Z 16008KT 22/13 A2977 RMK A01 T02210134  RH  058%=      5-min Rain = 0
KCA1 220253Z 16007KT 22/13 A2977 RMK A01 T02210134  RH  058%=      5-min Rain = 0
KCA1 220254Z 16008KT 22/13 A2977 RMK A01 T02210134  RH  058%=      5-min Rain = 0
KCA1 220255Z 16008KT 22/13 A2977 RMK A01 T02200134  RH  058%=      5-min Rain = 0
KCA1 220256Z 16007KT 22/14 A2977 RMK A01 T02200135  RH  058%=      5-min Rain = 0
KCA1 220257Z 16008KT 22/13 A2977 RMK A01 T02200134  RH  058%=      5-min Rain = 0
KCA1 220258Z 15008KT 22/13 A2977 RMK A01 T02190134  RH  059%=      5-min Rain = 0
KCA1 220259Z 16008KT 22/13 A2977 RMK A01 T02180134  RH  059%=      5-min Rain = 0
KCA1 220300Z 16008KT 22/13 A2977 RMK A01 T02180134  RH  059%=      5-min Rain = 0
KCA1 220301Z 16007KT 22/13 A2977 RMK A01 T02180134  RH  059%=      5-min Rain = 0
KCA1 220302Z 16007KT 22/13 A2977 RMK A01 T02170134  RH  059%=      5-min Rain = 0
KCA1 220303Z 15008KT 22/13 A2977 RMK A01 T02170134  RH  059%=      5-min Rain = 0
KCA1 220304Z 14008KT 22/13 A2977 RMK A01 T02160134  RH  059%=      5-min Rain = 0
KCA1 220305Z 15006KT 22/13 A2977 RMK A01 T02160134  RH  060%=      5-min Rain = 0
KCA1 220306Z 14007KT 22/13 A2977 RMK A01 T02150134  RH  060%=      5-min Rain = 0
KCA1 220307Z 15007KT 21/13 A2977 RMK A01 T02140134  RH  060%=      5-min Rain = 0
KCA1 220308Z 15008KT 21/13 A2977 RMK A01 T02140134  RH  060%=      5-min Rain = 0
KCA1 220309Z 15007KT 21/13 A2977 RMK A01 T02130134  RH  060%=      5-min Rain = 0
KCA1 220310Z 15007KT 21/13 A2977 RMK A01 T02130134  RH  061%=      5-min Rain = 0
KCA1 220311Z 14008KT 21/13 A2977 RMK A01 T02120134  RH  061%=      5-min Rain = 0
KCA1 220312Z 14008KT 21/13 A2977 RMK A01 T02110134  RH  061%=      5-min Rain = 0
KCA1 220313Z 15008KT 21/13 A2977 RMK A01 T02110133  RH  061%=      5-min Rain = 0
KCA1 220314Z 15008KT 21/13 A2978 RMK A01 T02110133  RH  061%=      5-min Rain = 0
KCA1 220315Z 15007KT 21/13 A2978 RMK A01 T02100133  RH  061%=      5-min Rain = 0
KCA1 220316Z 14008KT 21/13 A2978 RMK A01 T02090133  RH  062%=      5-min Rain = 0
KCA1 220317Z 14007KT 21/13 A2978 RMK A01 T02080133  RH  062%=      5-min Rain = 0
KCA1 220318Z 14007KT 21/13 A2978 RMK A01 T02080134  RH  062%=      5-min Rain = 0
KCA1 220319Z 15007KT 21/13 A2978 RMK A01 T02080133  RH  062%=      5-min Rain = 0
KCA1 220320Z 14006KT 21/13 A2978 RMK A01 T02080133  RH  062%=      5-min Rain = 0
KCA1 220321Z 14005KT 21/13 A2978 RMK A01 T02070132  RH  062%=      5-min Rain = 0
KCA1 220322Z 14007KT 21/13 A2978 RMK A01 T02070132  RH  062%=      5-min Rain = 0
KCA1 220323Z 15006KT 21/13 A2978 RMK A01 T02060132  RH  062%=      5-min Rain = 0
KCA1 220324Z 15005KT 21/13 A2978 RMK A01 T02060132  RH  062%=      5-min Rain = 0
KCA1 220325Z 14005KT 21/13 A2978 RMK A01 T02060132  RH  063%=      5-min Rain = 0
KCA1 220326Z 14005KT 21/13 A2978 RMK A01 T02050132  RH  063%=      5-min Rain = 0
KCA1 220327Z 15005KT 20/13 A2978 RMK A01 T02040132  RH  063%=      5-min Rain = 0
KCA1 220328Z 15004KT 20/13 A2978 RMK A01 T02040132  RH  063%=      5-min Rain = 0
KCA1 220329Z 14004KT 20/13 A2978 RMK A01 T02040132  RH  063%=      5-min Rain = 0
KCA1 220330Z 15005KT 20/13 A2978 RMK A01 T02030131  RH  063%=      5-min Rain = 0
KCA1 220331Z 15005KT 20/13 A2978 RMK A01 T02020131  RH  064%=      5-min Rain = 0
KCA1 220332Z 14005KT 20/13 A2978 RMK A01 T02020131  RH  064%=      5-min Rain = 0
KCA1 220333Z 14005KT 20/13 A2978 RMK A01 T02020132  RH  064%=      5-min Rain = 0
KCA1 220334Z 14004KT 20/13 A2978 RMK A01 T02010131  RH  064%=      5-min Rain = 0
KCA1 220335Z 13005KT 20/13 A2978 RMK A01 T02010131  RH  064%=      5-min Rain = 0
KCA1 220336Z 13005KT 20/13 A2978 RMK A01 T02000131  RH  064%=      5-min Rain = 0
KCA1 220337Z 13005KT 20/13 A2978 RMK A01 T02000131  RH  065%=      5-min Rain = 0
KCA1 220338Z 13005KT 20/13 A2978 RMK A01 T01990131  RH  065%=      5-min Rain = 0
KCA1 220339Z 13006KT 20/13 A2978 RMK A01 T01990131  RH  065%=      5-min Rain = 0
KCA1 220340Z 13006KT 20/13 A2978 RMK A01 T01980131  RH  065%=      5-min Rain = 0
KCA1 220341Z 13005KT 20/13 A2978 RMK A01 T01980131  RH  065%=      5-min Rain = 0
KCA1 220342Z 13005KT 20/13 A2979 RMK A01 T01980131  RH  065%=      5-min Rain = 0
KCA1 220343Z 13006KT 20/13 A2979 RMK A01 T01980131  RH  065%=      5-min Rain = 0
KCA1 220344Z 13007KT 20/13 A2979 RMK A01 T01980131  RH  065%=      5-min Rain = 0
KCA1 220345Z 13006KT 20/13 A2979 RMK A01 T01990131  RH  065%=      5-min Rain = 0
KCA1 220346Z 13006KT 20/13 A2979 RMK A01 T01990132  RH  065%=      5-min Rain = 0
KCA1 220347Z 13006KT 20/13 A2979 RMK A01 T01990132  RH  065%=      5-min Rain = 0
KCA1 220348Z 13006KT 20/13 A2979 RMK A01 T01990132  RH  065%=      5-min Rain = 0
KCA1 220349Z 13006KT 20/13 A2979 RMK A01 T01980132  RH  065%=      5-min Rain = 0
KCA1 220350Z 12006KT 20/13 A2979 RMK A01 T01980132  RH  066%=      5-min Rain = 0
KCA1 220351Z 12007KT 20/13 A2979 RMK A01 T01980132  RH  066%=      5-min Rain = 0
KCA1 220352Z 12006KT 20/13 A2979 RMK A01 T01980132  RH  066%=      5-min Rain = 0
KCA1 220353Z 12006KT 20/13 A2979 RMK A01 T01980132  RH  066%=      5-min Rain = 0
KCA1 220354Z 12006KT 20/13 A2979 RMK A01 T01970131  RH  066%=      5-min Rain = 0
KCA1 220355Z 12006KT 20/13 A2979 RMK A01 T01960131  RH  066%=      5-min Rain = 0
KCA1 220356Z 12006KT 20/13 A2979 RMK A01 T01970132  RH  066%=      5-min Rain = 0
KCA1 220357Z 13007KT 20/13 A2979 RMK A01 T01960132  RH  066%=      5-min Rain = 0
KCA1 220358Z 12007KT 20/13 A2979 RMK A01 T01960132  RH  066%=      5-min Rain = 0
KCA1 220359Z 13007KT 20/13 A2979 RMK A01 T01970132  RH  066%=      5-min Rain = 0
KCA1 220400Z 13009KT 20/13 A2979 RMK A01 T01980132  RH  066%=      5-min Rain = 0
KCA1 220401Z 13008KT 20/13 A2979 RMK A01 T01980133  RH  066%=      5-min Rain = 0
KCA1 220402Z 13008KT 20/13 A2979 RMK A01 T01980133  RH  066%=      5-min Rain = 0
KCA1 220403Z 12006KT 20/13 A2979 RMK A01 T01980133  RH  066%=      5-min Rain = 0
KCA1 220404Z 12006KT 20/13 A2979 RMK A01 T01970133  RH  066%=      5-min Rain = 0
KCA1 220405Z 12006KT 20/13 A2979 RMK A01 T01970132  RH  066%=      5-min Rain = 0
KCA1 220406Z 13007KT 20/13 A2979 RMK A01 T01960133  RH  067%=      5-min Rain = 0
KCA1 220407Z 13006KT 20/13 A2979 RMK A01 T01960133  RH  067%=      5-min Rain = 0
KCA1 220408Z 13006KT 20/13 A2979 RMK A01 T01950133  RH  067%=      5-min Rain = 0
KCA1 220409Z 13006KT 20/13 A2979 RMK A01 T01950133  RH  067%=      5-min Rain = 0
KCA1 220410Z 14007KT 20/13 A2979 RMK A01 T01950133  RH  068%=      5-min Rain = 0
KCA1 220411Z 13006KT 20/13 A2979 RMK A01 T01950134  RH  068%=      5-min Rain = 0
KCA1 220412Z 14006KT 20/13 A2979 RMK A01 T01950134  RH  068%=      5-min Rain = 0
KCA1 220413Z 14006KT 20/13 A2979 RMK A01 T01950134  RH  068%=      5-min Rain = 0
KCA1 220414Z 14006KT 19/13 A2979 RMK A01 T01940134  RH  068%=      5-min Rain = 0
KCA1 220415Z 15006KT 19/14 A2979 RMK A01 T01940135  RH  069%=      5-min Rain = 0
KCA1 220416Z 15005KT 19/13 A2979 RMK A01 T01940134  RH  069%=      5-min Rain = 0
KCA1 220417Z 15006KT 19/14 A2979 RMK A01 T01940135  RH  069%=      5-min Rain = 0
KCA1 220418Z 16005KT 19/14 A2979 RMK A01 T01940135  RH  069%=      5-min Rain = 0
KCA1 220419Z 16008KT 19/14 A2979 RMK A01 T01930135  RH  069%=      5-min Rain = 0
KCA1 220420Z 16007KT 19/14 A2979 RMK A01 T01930135  RH  069%=      5-min Rain = 0
KCA1 220421Z 16006KT 19/14 A2979 RMK A01 T01940136  RH  069%=      5-min Rain = 0
KCA1 220422Z 16008KT 19/14 A2979 RMK A01 T01940136  RH  069%=      5-min Rain = 0
KCA1 220423Z 16007KT 19/14 A2979 RMK A01 T01940136  RH  069%=      5-min Rain = 0
KCA1 220424Z 16008KT 20/14 A2979 RMK A01 T01950136  RH  069%=      5-min Rain = 0
KCA1 220425Z 16009KT 20/14 A2979 RMK A01 T01950137  RH  069%=      5-min Rain = 0
KCA1 220426Z 17007KT 20/14 A2979 RMK A01 T01960136  RH  069%=      5-min Rain = 0
KCA1 220427Z 17008KT 20/14 A2979 RMK A01 T01960137  RH  068%=      5-min Rain = 0
KCA1 220428Z 16009KT 20/14 A2979 RMK A01 T01960136  RH  069%=      5-min Rain = 0
KCA1 220429Z 17007KT 20/14 A2979 RMK A01 T01960137  RH  068%=      5-min Rain = 0
KCA1 220430Z 17009KT 20/14 A2979 RMK A01 T01960137  RH  068%=      5-min Rain = 0
KCA1 220431Z 17008KT 20/14 A2979 RMK A01 T01970137  RH  068%=      5-min Rain = 0
KCA1 220432Z 16009KT 20/14 A2979 RMK A01 T01960137  RH  068%=      5-min Rain = 0
KCA1 220433Z 16008KT 20/14 A2979 RMK A01 T01960137  RH  069%=      5-min Rain = 0
KCA1 220434Z 16009KT 20/14 A2979 RMK A01 T01960137  RH  068%=      5-min Rain = 0
KCA1 220435Z 16010KT 20/14 A2979 RMK A01 T01970137  RH  068%=      5-min Rain = 0
KCA1 220436Z 17012KT 20/14 A2979 RMK A01 T01970137  RH  068%=      5-min Rain = 0
KCA1 220437Z 17010KT 20/14 A2979 RMK A01 T01980138  RH  068%=      5-min Rain = 0
KCA1 220438Z 16011KT 20/14 A2979 RMK A01 T01990138  RH  068%=      5-min Rain = 0
KCA1 220439Z 17014KT 20/14 A2979 RMK A01 T02000138  RH  067%=      5-min Rain = 0
KCA1 220440Z 16012KT 20/14 A2979 RMK A01 T02010138  RH  067%=      5-min Rain = 0
KCA1 220441Z 17012KT 20/14 A2979 RMK A01 T02010138  RH  067%=      5-min Rain = 0
KCA1 220442Z 16011KT 20/14 A2979 RMK A01 T02010138  RH  067%=      5-min Rain = 0
KCA1 220443Z 17012KT 20/14 A2979 RMK A01 T02010138  RH  067%=      5-min Rain = 0
KCA1 220444Z 17012KT 20/14 A2979 RMK A01 T02000138  RH  067%=      5-min Rain = 0
KCA1 220445Z 17012KT 20/14 A2979 RMK A01 T02000138  RH  067%=      5-min Rain = 0
KCA1 220446Z 16013KT 20/14 A2979 RMK A01 T02000138  RH  068%=      5-min Rain = 0
KCA1 220447Z 16015KT 20/14 A2979 RMK A01 T01990138  RH  068%=      5-min Rain = 0
KCA1 220448Z 17013KT 20/14 A2979 RMK A01 T02000138  RH  068%=      5-min Rain = 0
KCA1 220449Z 16012KT 20/14 A2979 RMK A01 T02000138  RH  067%=      5-min Rain = 0
KCA1 220450Z 16011KT 20/14 A2979 RMK A01 T02000138  RH  068%=      5-min Rain = 0
KCA1 220451Z 16011KT 20/14 A2979 RMK A01 T01990138  RH  068%=      5-min Rain = 0
KCA1 220452Z 16012KT 20/14 A2979 RMK A01 T01990138  RH  068%=      5-min Rain = 0
KCA1 220453Z 16012KT 20/14 A2979 RMK A01 T01980138  RH  068%=      5-min Rain = 0
KCA1 220454Z 16012G18KT 20/14 A2979 RMK A01 T01980138  RH  068%=      5-min Rain = 0
KCA1 220455Z 17011KT 20/14 A2979 RMK A01 T01980139  RH  069%=      5-min Rain = 0
KCA1 220456Z 17011KT 20/14 A2979 RMK A01 T01980139  RH  069%=      5-min Rain = 0
KCA1 220457Z 16012G17KT 20/14 A2979 RMK A01 T01980139  RH  069%=      5-min Rain = 0
KCA1 220458Z 17011G16KT 20/14 A2979 RMK A01 T01980139  RH  069%=      5-min Rain = 0
KCA1 220459Z 16013KT 20/14 A2979 RMK A01 T01970139  RH  069%=      5-min Rain = 0

Page generated in 0.0762 seconds.